<?xml version="1.0" encoding="UTF-8" standalone="no" ?>
<gpx xmlns="http://www.topografix.com/GPX/1/1" xmlns:xsi="http://www.w3.org/2001/XMLSchema-instance" xsi:schemaLocation="http://www.topografix.com/GPX/1/1 http://www.topografix.com/GPX/1/1/gpx.xsd" version="1.1" creator="VisuGPX - https://www.visugpx.com">
  <metadata>
    <name>villers sur mer</name>
    <desc><![CDATA[----------------------------------------------------------------------------------------------------------------]]></desc>
  </metadata>
  <trk>
    <name><![CDATA[villers sur mer_1]]></name>
    <trkseg>
      <trkpt lat="49.32881" lon="0.01224">
        <ele>5.9</ele>
        <time>2018-08-12T08:22:23Z</time>
      </trkpt>
      <trkpt lat="49.32881" lon="0.01224">
        <ele>49.3461</ele>
        <time>2018-08-12T08:22:45Z</time>
      </trkpt>
      <trkpt lat="49.32887" lon="0.01225">
        <ele>51.3919</ele>
        <time>2018-08-12T08:22:50Z</time>
      </trkpt>
      <trkpt lat="49.32892" lon="0.0122">
        <ele>49.8453</ele>
        <time>2018-08-12T08:22:55Z</time>
      </trkpt>
      <trkpt lat="49.32894" lon="0.01218">
        <ele>49.5976</ele>
        <time>2018-08-12T08:22:57Z</time>
      </trkpt>
      <trkpt lat="49.32898" lon="0.01209">
        <ele>50.4241</ele>
        <time>2018-08-12T08:23:03Z</time>
      </trkpt>
      <trkpt lat="49.32899" lon="0.01197">
        <ele>50.8906</ele>
        <time>2018-08-12T08:23:09Z</time>
      </trkpt>
      <trkpt lat="49.329" lon="0.01189">
        <ele>51.2805</ele>
        <time>2018-08-12T08:23:13Z</time>
      </trkpt>
      <trkpt lat="49.32901" lon="0.01185">
        <ele>51.1046</ele>
        <time>2018-08-12T08:23:15Z</time>
      </trkpt>
      <trkpt lat="49.32901" lon="0.01177">
        <ele>51.3328</ele>
        <time>2018-08-12T08:23:20Z</time>
      </trkpt>
      <trkpt lat="49.32903" lon="0.01168">
        <ele>51.9716</ele>
        <time>2018-08-12T08:23:24Z</time>
      </trkpt>
      <trkpt lat="49.32906" lon="0.01161">
        <ele>52.078</ele>
        <time>2018-08-12T08:23:28Z</time>
      </trkpt>
      <trkpt lat="49.32907" lon="0.01154">
        <ele>53.1783</ele>
        <time>2018-08-12T08:23:32Z</time>
      </trkpt>
      <trkpt lat="49.3291" lon="0.01146">
        <ele>55.7665</ele>
        <time>2018-08-12T08:23:37Z</time>
      </trkpt>
      <trkpt lat="49.32911" lon="0.01143">
        <ele>56.163</ele>
        <time>2018-08-12T08:23:39Z</time>
      </trkpt>
      <trkpt lat="49.32915" lon="0.01139">
        <ele>56.9459</ele>
        <time>2018-08-12T08:23:45Z</time>
      </trkpt>
      <trkpt lat="49.32918" lon="0.01133">
        <ele>57.6216</ele>
        <time>2018-08-12T08:23:50Z</time>
      </trkpt>
      <trkpt lat="49.32923" lon="0.01128">
        <ele>58.0672</ele>
        <time>2018-08-12T08:23:56Z</time>
      </trkpt>
      <trkpt lat="49.32929" lon="0.01126">
        <ele>58.426</ele>
        <time>2018-08-12T08:24:00Z</time>
      </trkpt>
      <trkpt lat="49.32933" lon="0.01123">
        <ele>58.6758</ele>
        <time>2018-08-12T08:24:04Z</time>
      </trkpt>
      <trkpt lat="49.32939" lon="0.0112">
        <ele>58.4384</ele>
        <time>2018-08-12T08:24:08Z</time>
      </trkpt>
      <trkpt lat="49.32943" lon="0.01119">
        <ele>59.7353</ele>
        <time>2018-08-12T08:24:11Z</time>
      </trkpt>
      <trkpt lat="49.32948" lon="0.01116">
        <ele>59.8186</ele>
        <time>2018-08-12T08:24:15Z</time>
      </trkpt>
      <trkpt lat="49.32952" lon="0.0111">
        <ele>58.643</ele>
        <time>2018-08-12T08:24:19Z</time>
      </trkpt>
      <trkpt lat="49.32955" lon="0.01106">
        <ele>58.0316</ele>
        <time>2018-08-12T08:24:23Z</time>
      </trkpt>
      <trkpt lat="49.3296" lon="0.01101">
        <ele>57.4811</ele>
        <time>2018-08-12T08:24:27Z</time>
      </trkpt>
      <trkpt lat="49.32964" lon="0.01095">
        <ele>56.7</ele>
        <time>2018-08-12T08:24:31Z</time>
      </trkpt>
      <trkpt lat="49.32969" lon="0.01093">
        <ele>56.7786</ele>
        <time>2018-08-12T08:24:35Z</time>
      </trkpt>
      <trkpt lat="49.32973" lon="0.0109">
        <ele>57.7086</ele>
        <time>2018-08-12T08:24:39Z</time>
      </trkpt>
      <trkpt lat="49.32978" lon="0.01088">
        <ele>60.4697</ele>
        <time>2018-08-12T08:24:44Z</time>
      </trkpt>
      <trkpt lat="49.32982" lon="0.01083">
        <ele>61.3972</ele>
        <time>2018-08-12T08:24:49Z</time>
      </trkpt>
      <trkpt lat="49.32984" lon="0.01081">
        <ele>60.8034</ele>
        <time>2018-08-12T08:24:51Z</time>
      </trkpt>
      <trkpt lat="49.32987" lon="0.01075">
        <ele>58.467</ele>
        <time>2018-08-12T08:24:55Z</time>
      </trkpt>
      <trkpt lat="49.32989" lon="0.01072">
        <ele>57.4901</ele>
        <time>2018-08-12T08:24:57Z</time>
      </trkpt>
      <trkpt lat="49.32991" lon="0.01065">
        <ele>57.0024</ele>
        <time>2018-08-12T08:25:00Z</time>
      </trkpt>
      <trkpt lat="49.32992" lon="0.01057">
        <ele>56.2041</ele>
        <time>2018-08-12T08:25:04Z</time>
      </trkpt>
      <trkpt lat="49.32996" lon="0.01051">
        <ele>55.0462</ele>
        <time>2018-08-12T08:25:09Z</time>
      </trkpt>
      <trkpt lat="49.32999" lon="0.01045">
        <ele>53.8966</ele>
        <time>2018-08-12T08:25:14Z</time>
      </trkpt>
      <trkpt lat="49.33001" lon="0.01037">
        <ele>54.0274</ele>
        <time>2018-08-12T08:25:19Z</time>
      </trkpt>
      <trkpt lat="49.33001" lon="0.01029">
        <ele>54.7108</ele>
        <time>2018-08-12T08:25:23Z</time>
      </trkpt>
      <trkpt lat="49.33001" lon="0.01021">
        <ele>54.4744</ele>
        <time>2018-08-12T08:25:28Z</time>
      </trkpt>
      <trkpt lat="49.33001" lon="0.01016">
        <ele>53.4351</ele>
        <time>2018-08-12T08:25:32Z</time>
      </trkpt>
      <trkpt lat="49.33008" lon="0.01014">
        <ele>53.9638</ele>
        <time>2018-08-12T08:25:40Z</time>
      </trkpt>
      <trkpt lat="49.33013" lon="0.01009">
        <ele>53.112</ele>
        <time>2018-08-12T08:25:44Z</time>
      </trkpt>
      <trkpt lat="49.33015" lon="0.01001">
        <ele>53.6866</ele>
        <time>2018-08-12T08:25:49Z</time>
      </trkpt>
      <trkpt lat="49.33017" lon="0.00994">
        <ele>53.9789</ele>
        <time>2018-08-12T08:25:53Z</time>
      </trkpt>
      <trkpt lat="49.33017" lon="0.00989">
        <ele>54.3442</ele>
        <time>2018-08-12T08:25:55Z</time>
      </trkpt>
      <trkpt lat="49.3302" lon="0.00983">
        <ele>53.2173</ele>
        <time>2018-08-12T08:26:00Z</time>
      </trkpt>
      <trkpt lat="49.33021" lon="0.0098">
        <ele>53.1896</ele>
        <time>2018-08-12T08:26:06Z</time>
      </trkpt>
      <trkpt lat="49.33018" lon="0.00973">
        <ele>52.8093</ele>
        <time>2018-08-12T08:26:13Z</time>
      </trkpt>
      <trkpt lat="49.33013" lon="0.00965">
        <ele>52.5506</ele>
        <time>2018-08-12T08:26:18Z</time>
      </trkpt>
      <trkpt lat="49.33011" lon="0.00962">
        <ele>52.5938</ele>
        <time>2018-08-12T08:26:21Z</time>
      </trkpt>
      <trkpt lat="49.33007" lon="0.00956">
        <ele>52.8403</ele>
        <time>2018-08-12T08:26:26Z</time>
      </trkpt>
      <trkpt lat="49.33006" lon="0.00954">
        <ele>52.7544</ele>
        <time>2018-08-12T08:26:28Z</time>
      </trkpt>
      <trkpt lat="49.33003" lon="0.00951">
        <ele>52.659</ele>
        <time>2018-08-12T08:26:30Z</time>
      </trkpt>
      <trkpt lat="49.33" lon="0.00944">
        <ele>52.6302</ele>
        <time>2018-08-12T08:26:34Z</time>
      </trkpt>
      <trkpt lat="49.32996" lon="0.00937">
        <ele>52.877</ele>
        <time>2018-08-12T08:26:40Z</time>
      </trkpt>
      <trkpt lat="49.32993" lon="0.0093">
        <ele>52.9638</ele>
        <time>2018-08-12T08:26:45Z</time>
      </trkpt>
      <trkpt lat="49.32991" lon="0.00925">
        <ele>52.9162</ele>
        <time>2018-08-12T08:26:48Z</time>
      </trkpt>
      <trkpt lat="49.32988" lon="0.0092">
        <ele>53.1901</ele>
        <time>2018-08-12T08:26:52Z</time>
      </trkpt>
      <trkpt lat="49.32985" lon="0.00915">
        <ele>53.1559</ele>
        <time>2018-08-12T08:26:55Z</time>
      </trkpt>
      <trkpt lat="49.32983" lon="0.00908">
        <ele>53.7733</ele>
        <time>2018-08-12T08:27:00Z</time>
      </trkpt>
      <trkpt lat="49.32981" lon="0.00904">
        <ele>54.0654</ele>
        <time>2018-08-12T08:27:03Z</time>
      </trkpt>
      <trkpt lat="49.32978" lon="0.00897">
        <ele>53.6618</ele>
        <time>2018-08-12T08:27:09Z</time>
      </trkpt>
      <trkpt lat="49.32974" lon="0.00891">
        <ele>52.3938</ele>
        <time>2018-08-12T08:27:14Z</time>
      </trkpt>
      <trkpt lat="49.3297" lon="0.00883">
        <ele>51.1541</ele>
        <time>2018-08-12T08:27:19Z</time>
      </trkpt>
      <trkpt lat="49.32968" lon="0.0088">
        <ele>50.564</ele>
        <time>2018-08-12T08:27:22Z</time>
      </trkpt>
      <trkpt lat="49.32967" lon="0.00876">
        <ele>49.9952</ele>
        <time>2018-08-12T08:27:25Z</time>
      </trkpt>
      <trkpt lat="49.32965" lon="0.00873">
        <ele>49.8017</ele>
        <time>2018-08-12T08:27:27Z</time>
      </trkpt>
      <trkpt lat="49.32962" lon="0.00865">
        <ele>49.9188</ele>
        <time>2018-08-12T08:27:32Z</time>
      </trkpt>
      <trkpt lat="49.32959" lon="0.0086">
        <ele>49.6906</ele>
        <time>2018-08-12T08:27:36Z</time>
      </trkpt>
      <trkpt lat="49.32955" lon="0.00852">
        <ele>49.7044</ele>
        <time>2018-08-12T08:27:42Z</time>
      </trkpt>
      <trkpt lat="49.32953" lon="0.00849">
        <ele>50.0141</ele>
        <time>2018-08-12T08:27:44Z</time>
      </trkpt>
      <trkpt lat="49.32948" lon="0.00846">
        <ele>50.4081</ele>
        <time>2018-08-12T08:27:49Z</time>
      </trkpt>
      <trkpt lat="49.32942" lon="0.00843">
        <ele>50.9062</ele>
        <time>2018-08-12T08:27:54Z</time>
      </trkpt>
      <trkpt lat="49.32938" lon="0.00839">
        <ele>51.4955</ele>
        <time>2018-08-12T08:27:58Z</time>
      </trkpt>
      <trkpt lat="49.32933" lon="0.00838">
        <ele>52.0374</ele>
        <time>2018-08-12T08:28:03Z</time>
      </trkpt>
      <trkpt lat="49.32929" lon="0.00833">
        <ele>52.3395</ele>
        <time>2018-08-12T08:28:09Z</time>
      </trkpt>
      <trkpt lat="49.32925" lon="0.00826">
        <ele>53.5042</ele>
        <time>2018-08-12T08:28:13Z</time>
      </trkpt>
      <trkpt lat="49.32923" lon="0.00823">
        <ele>54.2685</ele>
        <time>2018-08-12T08:28:15Z</time>
      </trkpt>
      <trkpt lat="49.32919" lon="0.00816">
        <ele>55.384</ele>
        <time>2018-08-12T08:28:19Z</time>
      </trkpt>
      <trkpt lat="49.32915" lon="0.0081">
        <ele>57.1837</ele>
        <time>2018-08-12T08:28:24Z</time>
      </trkpt>
      <trkpt lat="49.32911" lon="0.00799">
        <ele>58.8972</ele>
        <time>2018-08-12T08:28:28Z</time>
      </trkpt>
      <trkpt lat="49.3291" lon="0.00795">
        <ele>59.0238</ele>
        <time>2018-08-12T08:28:30Z</time>
      </trkpt>
      <trkpt lat="49.32908" lon="0.00791">
        <ele>59.3593</ele>
        <time>2018-08-12T08:28:32Z</time>
      </trkpt>
      <trkpt lat="49.32906" lon="0.00788">
        <ele>59.7219</ele>
        <time>2018-08-12T08:28:34Z</time>
      </trkpt>
      <trkpt lat="49.32903" lon="0.00783">
        <ele>60.4626</ele>
        <time>2018-08-12T08:28:38Z</time>
      </trkpt>
      <trkpt lat="49.32899" lon="0.00778">
        <ele>60.2086</ele>
        <time>2018-08-12T08:28:44Z</time>
      </trkpt>
      <trkpt lat="49.32897" lon="0.00776">
        <ele>60.2969</ele>
        <time>2018-08-12T08:28:46Z</time>
      </trkpt>
      <trkpt lat="49.32895" lon="0.00774">
        <ele>59.8971</ele>
        <time>2018-08-12T08:28:48Z</time>
      </trkpt>
      <trkpt lat="49.32892" lon="0.00767">
        <ele>59.3782</ele>
        <time>2018-08-12T08:28:53Z</time>
      </trkpt>
      <trkpt lat="49.32888" lon="0.00761">
        <ele>58.3785</ele>
        <time>2018-08-12T08:28:57Z</time>
      </trkpt>
      <trkpt lat="49.32885" lon="0.00751">
        <ele>57.5676</ele>
        <time>2018-08-12T08:29:02Z</time>
      </trkpt>
      <trkpt lat="49.32884" lon="0.00748">
        <ele>57.2441</ele>
        <time>2018-08-12T08:29:04Z</time>
      </trkpt>
      <trkpt lat="49.32881" lon="0.00741">
        <ele>57.3823</ele>
        <time>2018-08-12T08:29:09Z</time>
      </trkpt>
      <trkpt lat="49.32877" lon="0.00737">
        <ele>58.3542</ele>
        <time>2018-08-12T08:29:13Z</time>
      </trkpt>
      <trkpt lat="49.32872" lon="0.00733">
        <ele>58.9551</ele>
        <time>2018-08-12T08:29:17Z</time>
      </trkpt>
      <trkpt lat="49.3287" lon="0.00725">
        <ele>57.6313</ele>
        <time>2018-08-12T08:29:21Z</time>
      </trkpt>
      <trkpt lat="49.32866" lon="0.00715">
        <ele>56.4466</ele>
        <time>2018-08-12T08:29:25Z</time>
      </trkpt>
      <trkpt lat="49.32863" lon="0.00706">
        <ele>56.1994</ele>
        <time>2018-08-12T08:29:30Z</time>
      </trkpt>
      <trkpt lat="49.3286" lon="0.00698">
        <ele>54.2476</ele>
        <time>2018-08-12T08:29:35Z</time>
      </trkpt>
      <trkpt lat="49.32858" lon="0.0069">
        <ele>53.0012</ele>
        <time>2018-08-12T08:29:39Z</time>
      </trkpt>
      <trkpt lat="49.32855" lon="0.00684">
        <ele>53.1333</ele>
        <time>2018-08-12T08:29:42Z</time>
      </trkpt>
      <trkpt lat="49.32851" lon="0.00676">
        <ele>52.4916</ele>
        <time>2018-08-12T08:29:48Z</time>
      </trkpt>
      <trkpt lat="49.3285" lon="0.00673">
        <ele>52.5278</ele>
        <time>2018-08-12T08:29:50Z</time>
      </trkpt>
      <trkpt lat="49.32849" lon="0.00669">
        <ele>53.0178</ele>
        <time>2018-08-12T08:29:52Z</time>
      </trkpt>
      <trkpt lat="49.32845" lon="0.00663">
        <ele>54.0085</ele>
        <time>2018-08-12T08:29:56Z</time>
      </trkpt>
      <trkpt lat="49.32844" lon="0.0066">
        <ele>53.7998</ele>
        <time>2018-08-12T08:29:58Z</time>
      </trkpt>
      <trkpt lat="49.32842" lon="0.00657">
        <ele>53.548</ele>
        <time>2018-08-12T08:30:01Z</time>
      </trkpt>
      <trkpt lat="49.32839" lon="0.00651">
        <ele>51.967</ele>
        <time>2018-08-12T08:30:06Z</time>
      </trkpt>
      <trkpt lat="49.32836" lon="0.00645">
        <ele>51.3965</ele>
        <time>2018-08-12T08:30:10Z</time>
      </trkpt>
      <trkpt lat="49.32833" lon="0.00638">
        <ele>51.9554</ele>
        <time>2018-08-12T08:30:15Z</time>
      </trkpt>
      <trkpt lat="49.32831" lon="0.00632">
        <ele>51.7556</ele>
        <time>2018-08-12T08:30:19Z</time>
      </trkpt>
      <trkpt lat="49.32827" lon="0.00625">
        <ele>51.614</ele>
        <time>2018-08-12T08:30:24Z</time>
      </trkpt>
      <trkpt lat="49.32824" lon="0.00621">
        <ele>51.2773</ele>
        <time>2018-08-12T08:30:27Z</time>
      </trkpt>
      <trkpt lat="49.32822" lon="0.00617">
        <ele>50.7188</ele>
        <time>2018-08-12T08:30:30Z</time>
      </trkpt>
      <trkpt lat="49.32819" lon="0.00613">
        <ele>50.1599</ele>
        <time>2018-08-12T08:30:33Z</time>
      </trkpt>
      <trkpt lat="49.32816" lon="0.00604">
        <ele>49.5873</ele>
        <time>2018-08-12T08:30:38Z</time>
      </trkpt>
      <trkpt lat="49.32812" lon="0.00598">
        <ele>49.4122</ele>
        <time>2018-08-12T08:30:42Z</time>
      </trkpt>
      <trkpt lat="49.3281" lon="0.00591">
        <ele>49.1289</ele>
        <time>2018-08-12T08:30:48Z</time>
      </trkpt>
      <trkpt lat="49.32809" lon="0.00587">
        <ele>49.0375</ele>
        <time>2018-08-12T08:30:50Z</time>
      </trkpt>
      <trkpt lat="49.32806" lon="0.00582">
        <ele>49.1473</ele>
        <time>2018-08-12T08:30:53Z</time>
      </trkpt>
      <trkpt lat="49.32804" lon="0.00577">
        <ele>49.17</ele>
        <time>2018-08-12T08:30:55Z</time>
      </trkpt>
      <trkpt lat="49.32802" lon="0.00572">
        <ele>49.2144</ele>
        <time>2018-08-12T08:30:58Z</time>
      </trkpt>
      <trkpt lat="49.32799" lon="0.00565">
        <ele>49.7702</ele>
        <time>2018-08-12T08:31:02Z</time>
      </trkpt>
      <trkpt lat="49.32796" lon="0.00556">
        <ele>50.8356</ele>
        <time>2018-08-12T08:31:07Z</time>
      </trkpt>
      <trkpt lat="49.32795" lon="0.00553">
        <ele>51.1942</ele>
        <time>2018-08-12T08:31:09Z</time>
      </trkpt>
      <trkpt lat="49.32793" lon="0.00548">
        <ele>51.4902</ele>
        <time>2018-08-12T08:31:12Z</time>
      </trkpt>
      <trkpt lat="49.32791" lon="0.00544">
        <ele>51.8048</ele>
        <time>2018-08-12T08:31:14Z</time>
      </trkpt>
      <trkpt lat="49.3279" lon="0.00541">
        <ele>51.9422</ele>
        <time>2018-08-12T08:31:16Z</time>
      </trkpt>
      <trkpt lat="49.32788" lon="0.00534">
        <ele>51.9276</ele>
        <time>2018-08-12T08:31:20Z</time>
      </trkpt>
      <trkpt lat="49.32785" lon="0.00527">
        <ele>51.7979</ele>
        <time>2018-08-12T08:31:24Z</time>
      </trkpt>
      <trkpt lat="49.32781" lon="0.00522">
        <ele>52.3321</ele>
        <time>2018-08-12T08:31:28Z</time>
      </trkpt>
      <trkpt lat="49.32779" lon="0.0052">
        <ele>52.5176</ele>
        <time>2018-08-12T08:31:30Z</time>
      </trkpt>
      <trkpt lat="49.32776" lon="0.00514">
        <ele>52.5313</ele>
        <time>2018-08-12T08:31:33Z</time>
      </trkpt>
      <trkpt lat="49.32775" lon="0.0051">
        <ele>52.6518</ele>
        <time>2018-08-12T08:31:35Z</time>
      </trkpt>
      <trkpt lat="49.32773" lon="0.00506">
        <ele>52.7074</ele>
        <time>2018-08-12T08:31:37Z</time>
      </trkpt>
      <trkpt lat="49.32771" lon="0.00498">
        <ele>52.7671</ele>
        <time>2018-08-12T08:31:41Z</time>
      </trkpt>
      <trkpt lat="49.3277" lon="0.00495">
        <ele>52.909</ele>
        <time>2018-08-12T08:31:43Z</time>
      </trkpt>
      <trkpt lat="49.32769" lon="0.0049">
        <ele>53.3975</ele>
        <time>2018-08-12T08:31:46Z</time>
      </trkpt>
      <trkpt lat="49.32768" lon="0.00486">
        <ele>53.5407</ele>
        <time>2018-08-12T08:31:48Z</time>
      </trkpt>
      <trkpt lat="49.32765" lon="0.0048">
        <ele>53.178</ele>
        <time>2018-08-12T08:31:51Z</time>
      </trkpt>
      <trkpt lat="49.3276" lon="0.00471">
        <ele>53.7796</ele>
        <time>2018-08-12T08:31:55Z</time>
      </trkpt>
      <trkpt lat="49.32756" lon="0.00467">
        <ele>55.0812</ele>
        <time>2018-08-12T08:31:59Z</time>
      </trkpt>
      <trkpt lat="49.32752" lon="0.00461">
        <ele>56.5703</ele>
        <time>2018-08-12T08:32:04Z</time>
      </trkpt>
      <trkpt lat="49.3275" lon="0.00455">
        <ele>56.3243</ele>
        <time>2018-08-12T08:32:08Z</time>
      </trkpt>
      <trkpt lat="49.32748" lon="0.00449">
        <ele>55.2835</ele>
        <time>2018-08-12T08:32:11Z</time>
      </trkpt>
      <trkpt lat="49.32747" lon="0.00445">
        <ele>54.5379</ele>
        <time>2018-08-12T08:32:13Z</time>
      </trkpt>
      <trkpt lat="49.32744" lon="0.00439">
        <ele>53.3098</ele>
        <time>2018-08-12T08:32:17Z</time>
      </trkpt>
      <trkpt lat="49.32742" lon="0.00436">
        <ele>53.0068</ele>
        <time>2018-08-12T08:32:19Z</time>
      </trkpt>
      <trkpt lat="49.32739" lon="0.00428">
        <ele>52.2533</ele>
        <time>2018-08-12T08:32:24Z</time>
      </trkpt>
      <trkpt lat="49.32737" lon="0.00424">
        <ele>51.9282</ele>
        <time>2018-08-12T08:32:26Z</time>
      </trkpt>
      <trkpt lat="49.32735" lon="0.00421">
        <ele>51.7056</ele>
        <time>2018-08-12T08:32:28Z</time>
      </trkpt>
      <trkpt lat="49.32734" lon="0.00417">
        <ele>51.6958</ele>
        <time>2018-08-12T08:32:30Z</time>
      </trkpt>
      <trkpt lat="49.32732" lon="0.00414">
        <ele>51.9231</ele>
        <time>2018-08-12T08:32:32Z</time>
      </trkpt>
      <trkpt lat="49.3273" lon="0.00407">
        <ele>51.4293</ele>
        <time>2018-08-12T08:32:36Z</time>
      </trkpt>
      <trkpt lat="49.32728" lon="0.00398">
        <ele>50.0129</ele>
        <time>2018-08-12T08:32:41Z</time>
      </trkpt>
      <trkpt lat="49.32725" lon="0.00389">
        <ele>51.6445</ele>
        <time>2018-08-12T08:32:47Z</time>
      </trkpt>
      <trkpt lat="49.32723" lon="0.00383">
        <ele>51.5786</ele>
        <time>2018-08-12T08:32:50Z</time>
      </trkpt>
      <trkpt lat="49.32721" lon="0.00375">
        <ele>52.6415</ele>
        <time>2018-08-12T08:32:55Z</time>
      </trkpt>
      <trkpt lat="49.32718" lon="0.00369">
        <ele>53.9102</ele>
        <time>2018-08-12T08:32:59Z</time>
      </trkpt>
      <trkpt lat="49.32716" lon="0.00364">
        <ele>54.353</ele>
        <time>2018-08-12T08:33:02Z</time>
      </trkpt>
      <trkpt lat="49.32714" lon="0.00361">
        <ele>54.1045</ele>
        <time>2018-08-12T08:33:04Z</time>
      </trkpt>
      <trkpt lat="49.32712" lon="0.00357">
        <ele>53.5624</ele>
        <time>2018-08-12T08:33:06Z</time>
      </trkpt>
      <trkpt lat="49.32711" lon="0.00353">
        <ele>53.6264</ele>
        <time>2018-08-12T08:33:08Z</time>
      </trkpt>
      <trkpt lat="49.32707" lon="0.00347">
        <ele>53.5838</ele>
        <time>2018-08-12T08:33:12Z</time>
      </trkpt>
      <trkpt lat="49.32706" lon="0.00345">
        <ele>53.8722</ele>
        <time>2018-08-12T08:33:14Z</time>
      </trkpt>
      <trkpt lat="49.32704" lon="0.00342">
        <ele>53.613</ele>
        <time>2018-08-12T08:33:16Z</time>
      </trkpt>
      <trkpt lat="49.32702" lon="0.00337">
        <ele>52.8932</ele>
        <time>2018-08-12T08:33:20Z</time>
      </trkpt>
      <trkpt lat="49.32699" lon="0.00328">
        <ele>52.3285</ele>
        <time>2018-08-12T08:33:25Z</time>
      </trkpt>
      <trkpt lat="49.32697" lon="0.00324">
        <ele>52.4916</ele>
        <time>2018-08-12T08:33:27Z</time>
      </trkpt>
      <trkpt lat="49.32694" lon="0.00318">
        <ele>52.3404</ele>
        <time>2018-08-12T08:33:30Z</time>
      </trkpt>
      <trkpt lat="49.32691" lon="0.0031">
        <ele>52.3154</ele>
        <time>2018-08-12T08:33:34Z</time>
      </trkpt>
      <trkpt lat="49.32688" lon="0.00304">
        <ele>51.7396</ele>
        <time>2018-08-12T08:33:37Z</time>
      </trkpt>
      <trkpt lat="49.32687" lon="0.00301">
        <ele>51.9256</ele>
        <time>2018-08-12T08:33:39Z</time>
      </trkpt>
      <trkpt lat="49.32685" lon="0.00293">
        <ele>51.9152</ele>
        <time>2018-08-12T08:33:44Z</time>
      </trkpt>
      <trkpt lat="49.32682" lon="0.00285">
        <ele>51.9595</ele>
        <time>2018-08-12T08:33:49Z</time>
      </trkpt>
      <trkpt lat="49.3268" lon="0.00279">
        <ele>51.1491</ele>
        <time>2018-08-12T08:33:53Z</time>
      </trkpt>
      <trkpt lat="49.32678" lon="0.00271">
        <ele>50.4419</ele>
        <time>2018-08-12T08:33:57Z</time>
      </trkpt>
      <trkpt lat="49.32675" lon="0.00265">
        <ele>49.3601</ele>
        <time>2018-08-12T08:34:01Z</time>
      </trkpt>
      <trkpt lat="49.32672" lon="0.00259">
        <ele>48.8416</ele>
        <time>2018-08-12T08:34:05Z</time>
      </trkpt>
      <trkpt lat="49.3267" lon="0.00252">
        <ele>49.2114</ele>
        <time>2018-08-12T08:34:09Z</time>
      </trkpt>
      <trkpt lat="49.32667" lon="0.00246">
        <ele>49.5529</ele>
        <time>2018-08-12T08:34:13Z</time>
      </trkpt>
      <trkpt lat="49.32665" lon="0.00243">
        <ele>49.5264</ele>
        <time>2018-08-12T08:34:15Z</time>
      </trkpt>
      <trkpt lat="49.32663" lon="0.0024">
        <ele>49.9421</ele>
        <time>2018-08-12T08:34:17Z</time>
      </trkpt>
      <trkpt lat="49.32661" lon="0.00236">
        <ele>50.1224</ele>
        <time>2018-08-12T08:34:19Z</time>
      </trkpt>
      <trkpt lat="49.32659" lon="0.00232">
        <ele>50.6682</ele>
        <time>2018-08-12T08:34:22Z</time>
      </trkpt>
      <trkpt lat="49.32657" lon="0.00228">
        <ele>51.2902</ele>
        <time>2018-08-12T08:34:24Z</time>
      </trkpt>
      <trkpt lat="49.32654" lon="0.00222">
        <ele>51.6174</ele>
        <time>2018-08-12T08:34:27Z</time>
      </trkpt>
      <trkpt lat="49.32652" lon="0.00218">
        <ele>51.9385</ele>
        <time>2018-08-12T08:34:29Z</time>
      </trkpt>
      <trkpt lat="49.3265" lon="0.00215">
        <ele>52.6151</ele>
        <time>2018-08-12T08:34:31Z</time>
      </trkpt>
      <trkpt lat="49.32647" lon="0.00205">
        <ele>53.0559</ele>
        <time>2018-08-12T08:34:37Z</time>
      </trkpt>
      <trkpt lat="49.32644" lon="0.00199">
        <ele>53.003</ele>
        <time>2018-08-12T08:34:40Z</time>
      </trkpt>
      <trkpt lat="49.32643" lon="0.00194">
        <ele>53.1938</ele>
        <time>2018-08-12T08:34:42Z</time>
      </trkpt>
      <trkpt lat="49.32641" lon="0.00185">
        <ele>53.1138</ele>
        <time>2018-08-12T08:34:47Z</time>
      </trkpt>
      <trkpt lat="49.32638" lon="0.0018">
        <ele>53.1092</ele>
        <time>2018-08-12T08:34:51Z</time>
      </trkpt>
      <trkpt lat="49.32636" lon="0.00175">
        <ele>52.6142</ele>
        <time>2018-08-12T08:34:54Z</time>
      </trkpt>
      <trkpt lat="49.32634" lon="0.0017">
        <ele>51.8437</ele>
        <time>2018-08-12T08:34:57Z</time>
      </trkpt>
      <trkpt lat="49.32631" lon="0.00164">
        <ele>52.0369</ele>
        <time>2018-08-12T08:35:01Z</time>
      </trkpt>
      <trkpt lat="49.32627" lon="0.00158">
        <ele>52.3531</ele>
        <time>2018-08-12T08:35:05Z</time>
      </trkpt>
      <trkpt lat="49.32624" lon="0.00152">
        <ele>51.5183</ele>
        <time>2018-08-12T08:35:10Z</time>
      </trkpt>
      <trkpt lat="49.32623" lon="0.00149">
        <ele>51.5232</ele>
        <time>2018-08-12T08:35:12Z</time>
      </trkpt>
      <trkpt lat="49.32622" lon="0.00145">
        <ele>51.9051</ele>
        <time>2018-08-12T08:35:14Z</time>
      </trkpt>
      <trkpt lat="49.3262" lon="0.00142">
        <ele>52.2579</ele>
        <time>2018-08-12T08:35:16Z</time>
      </trkpt>
      <trkpt lat="49.32616" lon="0.00133">
        <ele>52.7944</ele>
        <time>2018-08-12T08:35:20Z</time>
      </trkpt>
      <trkpt lat="49.32613" lon="0.00129">
        <ele>53.117</ele>
        <time>2018-08-12T08:35:22Z</time>
      </trkpt>
      <trkpt lat="49.32611" lon="0.00125">
        <ele>53.5331</ele>
        <time>2018-08-12T08:35:24Z</time>
      </trkpt>
      <trkpt lat="49.32609" lon="0.00118">
        <ele>53.2891</ele>
        <time>2018-08-12T08:35:27Z</time>
      </trkpt>
      <trkpt lat="49.32608" lon="0.00109">
        <ele>52.3517</ele>
        <time>2018-08-12T08:35:32Z</time>
      </trkpt>
      <trkpt lat="49.32605" lon="0.001">
        <ele>51.227</ele>
        <time>2018-08-12T08:35:37Z</time>
      </trkpt>
      <trkpt lat="49.32603" lon="0.00096">
        <ele>51.1198</ele>
        <time>2018-08-12T08:35:39Z</time>
      </trkpt>
      <trkpt lat="49.326" lon="0.00088">
        <ele>51.2162</ele>
        <time>2018-08-12T08:35:44Z</time>
      </trkpt>
      <trkpt lat="49.32599" lon="0.00085">
        <ele>50.8492</ele>
        <time>2018-08-12T08:35:46Z</time>
      </trkpt>
      <trkpt lat="49.32594" lon="0.00077">
        <ele>50.5306</ele>
        <time>2018-08-12T08:35:51Z</time>
      </trkpt>
      <trkpt lat="49.32591" lon="0.00068">
        <ele>49.5968</ele>
        <time>2018-08-12T08:35:56Z</time>
      </trkpt>
      <trkpt lat="49.32588" lon="0.00062">
        <ele>49.383</ele>
        <time>2018-08-12T08:36:00Z</time>
      </trkpt>
      <trkpt lat="49.32585" lon="0.00055">
        <ele>49.1741</ele>
        <time>2018-08-12T08:36:05Z</time>
      </trkpt>
      <trkpt lat="49.32584" lon="0.00046">
        <ele>49.4776</ele>
        <time>2018-08-12T08:36:10Z</time>
      </trkpt>
      <trkpt lat="49.32583" lon="0.00043">
        <ele>49.6742</ele>
        <time>2018-08-12T08:36:12Z</time>
      </trkpt>
      <trkpt lat="49.32582" lon="0.00038">
        <ele>49.3484</ele>
        <time>2018-08-12T08:36:15Z</time>
      </trkpt>
      <trkpt lat="49.32579" lon="0.0003">
        <ele>49.0438</ele>
        <time>2018-08-12T08:36:20Z</time>
      </trkpt>
      <trkpt lat="49.32578" lon="0.00026">
        <ele>49.2145</ele>
        <time>2018-08-12T08:36:22Z</time>
      </trkpt>
      <trkpt lat="49.32577" lon="0.00018">
        <ele>49.9203</ele>
        <time>2018-08-12T08:36:26Z</time>
      </trkpt>
      <trkpt lat="49.32574" lon="0.0001">
        <ele>50.262</ele>
        <time>2018-08-12T08:36:30Z</time>
      </trkpt>
      <trkpt lat="49.32572" lon="6.0E-5">
        <ele>50.2111</ele>
        <time>2018-08-12T08:36:33Z</time>
      </trkpt>
      <trkpt lat="49.32571" lon="2.0E-5">
        <ele>49.9376</ele>
        <time>2018-08-12T08:36:37Z</time>
      </trkpt>
      <trkpt lat="49.32569" lon="-6.0E-5">
        <ele>49.7522</ele>
        <time>2018-08-12T08:36:41Z</time>
      </trkpt>
      <trkpt lat="49.32569" lon="-9.0E-5">
        <ele>49.402</ele>
        <time>2018-08-12T08:36:43Z</time>
      </trkpt>
      <trkpt lat="49.32567" lon="-0.00016">
        <ele>49.245</ele>
        <time>2018-08-12T08:36:47Z</time>
      </trkpt>
      <trkpt lat="49.32565" lon="-0.0002">
        <ele>49.3629</ele>
        <time>2018-08-12T08:36:49Z</time>
      </trkpt>
      <trkpt lat="49.32562" lon="-0.00026">
        <ele>49.0988</ele>
        <time>2018-08-12T08:36:53Z</time>
      </trkpt>
      <trkpt lat="49.32561" lon="-0.0003">
        <ele>48.9759</ele>
        <time>2018-08-12T08:36:55Z</time>
      </trkpt>
      <trkpt lat="49.32558" lon="-0.00039">
        <ele>49.1685</ele>
        <time>2018-08-12T08:37:00Z</time>
      </trkpt>
      <trkpt lat="49.32557" lon="-0.00044">
        <ele>49.412</ele>
        <time>2018-08-12T08:37:03Z</time>
      </trkpt>
      <trkpt lat="49.32555" lon="-0.00051">
        <ele>49.839</ele>
        <time>2018-08-12T08:37:07Z</time>
      </trkpt>
      <trkpt lat="49.32554" lon="-0.00054">
        <ele>49.496</ele>
        <time>2018-08-12T08:37:09Z</time>
      </trkpt>
      <trkpt lat="49.32552" lon="-0.00059">
        <ele>48.6573</ele>
        <time>2018-08-12T08:37:12Z</time>
      </trkpt>
      <trkpt lat="49.3255" lon="-0.00065">
        <ele>48.4051</ele>
        <time>2018-08-12T08:37:16Z</time>
      </trkpt>
      <trkpt lat="49.32549" lon="-0.00068">
        <ele>48.2632</ele>
        <time>2018-08-12T08:37:18Z</time>
      </trkpt>
      <trkpt lat="49.32547" lon="-0.00074">
        <ele>48.5795</ele>
        <time>2018-08-12T08:37:21Z</time>
      </trkpt>
      <trkpt lat="49.32546" lon="-0.00077">
        <ele>48.7441</ele>
        <time>2018-08-12T08:37:23Z</time>
      </trkpt>
      <trkpt lat="49.32545" lon="-0.00081">
        <ele>48.7588</ele>
        <time>2018-08-12T08:37:25Z</time>
      </trkpt>
      <trkpt lat="49.32542" lon="-0.00086">
        <ele>48.7313</ele>
        <time>2018-08-12T08:37:29Z</time>
      </trkpt>
      <trkpt lat="49.3254" lon="-0.00091">
        <ele>48.9151</ele>
        <time>2018-08-12T08:37:33Z</time>
      </trkpt>
      <trkpt lat="49.32537" lon="-0.00101">
        <ele>49.5566</ele>
        <time>2018-08-12T08:37:39Z</time>
      </trkpt>
      <trkpt lat="49.32535" lon="-0.00106">
        <ele>49.6734</ele>
        <time>2018-08-12T08:37:42Z</time>
      </trkpt>
      <trkpt lat="49.32532" lon="-0.00115">
        <ele>49.6962</ele>
        <time>2018-08-12T08:37:47Z</time>
      </trkpt>
      <trkpt lat="49.32531" lon="-0.00118">
        <ele>49.7297</ele>
        <time>2018-08-12T08:37:49Z</time>
      </trkpt>
      <trkpt lat="49.3253" lon="-0.00122">
        <ele>49.6678</ele>
        <time>2018-08-12T08:37:51Z</time>
      </trkpt>
      <trkpt lat="49.32529" lon="-0.00126">
        <ele>49.4382</ele>
        <time>2018-08-12T08:37:53Z</time>
      </trkpt>
      <trkpt lat="49.32528" lon="-0.00129">
        <ele>49.2498</ele>
        <time>2018-08-12T08:37:55Z</time>
      </trkpt>
      <trkpt lat="49.32526" lon="-0.00135">
        <ele>49.1256</ele>
        <time>2018-08-12T08:37:58Z</time>
      </trkpt>
      <trkpt lat="49.32525" lon="-0.00139">
        <ele>49.1646</ele>
        <time>2018-08-12T08:38:00Z</time>
      </trkpt>
      <trkpt lat="49.32525" lon="-0.00142">
        <ele>49.1911</ele>
        <time>2018-08-12T08:38:02Z</time>
      </trkpt>
      <trkpt lat="49.32523" lon="-0.00149">
        <ele>50.0954</ele>
        <time>2018-08-12T08:38:06Z</time>
      </trkpt>
      <trkpt lat="49.32522" lon="-0.00155">
        <ele>50.5084</ele>
        <time>2018-08-12T08:38:09Z</time>
      </trkpt>
      <trkpt lat="49.3252" lon="-0.0016">
        <ele>50.1137</ele>
        <time>2018-08-12T08:38:13Z</time>
      </trkpt>
      <trkpt lat="49.32518" lon="-0.00163">
        <ele>49.8835</ele>
        <time>2018-08-12T08:38:15Z</time>
      </trkpt>
      <trkpt lat="49.32514" lon="-0.00171">
        <ele>49.8287</ele>
        <time>2018-08-12T08:38:20Z</time>
      </trkpt>
      <trkpt lat="49.32513" lon="-0.00174">
        <ele>50.012</ele>
        <time>2018-08-12T08:38:22Z</time>
      </trkpt>
      <trkpt lat="49.32511" lon="-0.00181">
        <ele>50.5504</ele>
        <time>2018-08-12T08:38:26Z</time>
      </trkpt>
      <trkpt lat="49.32508" lon="-0.00189">
        <ele>50.7227</ele>
        <time>2018-08-12T08:38:31Z</time>
      </trkpt>
      <trkpt lat="49.32506" lon="-0.00197">
        <ele>51.0409</ele>
        <time>2018-08-12T08:38:36Z</time>
      </trkpt>
      <trkpt lat="49.32503" lon="-0.00204">
        <ele>51.491</ele>
        <time>2018-08-12T08:38:41Z</time>
      </trkpt>
      <trkpt lat="49.32502" lon="-0.00207">
        <ele>51.4471</ele>
        <time>2018-08-12T08:38:43Z</time>
      </trkpt>
      <trkpt lat="49.325" lon="-0.00212">
        <ele>51.2095</ele>
        <time>2018-08-12T08:38:46Z</time>
      </trkpt>
      <trkpt lat="49.32498" lon="-0.00216">
        <ele>51.1363</ele>
        <time>2018-08-12T08:38:48Z</time>
      </trkpt>
      <trkpt lat="49.32497" lon="-0.00219">
        <ele>50.9013</ele>
        <time>2018-08-12T08:38:50Z</time>
      </trkpt>
      <trkpt lat="49.32495" lon="-0.00224">
        <ele>50.6477</ele>
        <time>2018-08-12T08:38:53Z</time>
      </trkpt>
      <trkpt lat="49.32492" lon="-0.00232">
        <ele>50.5727</ele>
        <time>2018-08-12T08:38:58Z</time>
      </trkpt>
      <trkpt lat="49.32491" lon="-0.00238">
        <ele>50.6377</ele>
        <time>2018-08-12T08:39:02Z</time>
      </trkpt>
      <trkpt lat="49.32489" lon="-0.00241">
        <ele>50.4816</ele>
        <time>2018-08-12T08:39:04Z</time>
      </trkpt>
      <trkpt lat="49.32487" lon="-0.00246">
        <ele>50.1319</ele>
        <time>2018-08-12T08:39:07Z</time>
      </trkpt>
      <trkpt lat="49.32485" lon="-0.00252">
        <ele>49.9508</ele>
        <time>2018-08-12T08:39:10Z</time>
      </trkpt>
      <trkpt lat="49.32482" lon="-0.00257">
        <ele>50.1458</ele>
        <time>2018-08-12T08:39:13Z</time>
      </trkpt>
      <trkpt lat="49.32481" lon="-0.0026">
        <ele>50.4299</ele>
        <time>2018-08-12T08:39:15Z</time>
      </trkpt>
      <trkpt lat="49.32479" lon="-0.00269">
        <ele>50.596</ele>
        <time>2018-08-12T08:39:20Z</time>
      </trkpt>
      <trkpt lat="49.32478" lon="-0.00273">
        <ele>50.6932</ele>
        <time>2018-08-12T08:39:22Z</time>
      </trkpt>
      <trkpt lat="49.32476" lon="-0.0028">
        <ele>50.2543</ele>
        <time>2018-08-12T08:39:27Z</time>
      </trkpt>
      <trkpt lat="49.32473" lon="-0.00286">
        <ele>49.4267</ele>
        <time>2018-08-12T08:39:31Z</time>
      </trkpt>
      <trkpt lat="49.32471" lon="-0.00293">
        <ele>48.9091</ele>
        <time>2018-08-12T08:39:35Z</time>
      </trkpt>
      <trkpt lat="49.32468" lon="-0.00299">
        <ele>47.8166</ele>
        <time>2018-08-12T08:39:39Z</time>
      </trkpt>
      <trkpt lat="49.32466" lon="-0.00305">
        <ele>48.111</ele>
        <time>2018-08-12T08:39:43Z</time>
      </trkpt>
      <trkpt lat="49.32463" lon="-0.00313">
        <ele>48.9585</ele>
        <time>2018-08-12T08:39:48Z</time>
      </trkpt>
      <trkpt lat="49.32462" lon="-0.00316">
        <ele>49.0684</ele>
        <time>2018-08-12T08:39:50Z</time>
      </trkpt>
      <trkpt lat="49.3246" lon="-0.00322">
        <ele>50.0629</ele>
        <time>2018-08-12T08:39:53Z</time>
      </trkpt>
      <trkpt lat="49.32458" lon="-0.0033">
        <ele>50.6926</ele>
        <time>2018-08-12T08:39:57Z</time>
      </trkpt>
      <trkpt lat="49.32458" lon="-0.00334">
        <ele>50.8263</ele>
        <time>2018-08-12T08:39:59Z</time>
      </trkpt>
      <trkpt lat="49.32455" lon="-0.0034">
        <ele>51.2763</ele>
        <time>2018-08-12T08:40:03Z</time>
      </trkpt>
      <trkpt lat="49.32452" lon="-0.00348">
        <ele>51.162</ele>
        <time>2018-08-12T08:40:08Z</time>
      </trkpt>
      <trkpt lat="49.3245" lon="-0.00351">
        <ele>51.3218</ele>
        <time>2018-08-12T08:40:10Z</time>
      </trkpt>
      <trkpt lat="49.32447" lon="-0.00359">
        <ele>51.1641</ele>
        <time>2018-08-12T08:40:15Z</time>
      </trkpt>
      <trkpt lat="49.32445" lon="-0.00364">
        <ele>50.8529</ele>
        <time>2018-08-12T08:40:19Z</time>
      </trkpt>
      <trkpt lat="49.32442" lon="-0.00373">
        <ele>51.4413</ele>
        <time>2018-08-12T08:40:25Z</time>
      </trkpt>
      <trkpt lat="49.3244" lon="-0.00376">
        <ele>51.7697</ele>
        <time>2018-08-12T08:40:27Z</time>
      </trkpt>
      <trkpt lat="49.32439" lon="-0.00381">
        <ele>51.8806</ele>
        <time>2018-08-12T08:40:30Z</time>
      </trkpt>
      <trkpt lat="49.32438" lon="-0.00385">
        <ele>51.8644</ele>
        <time>2018-08-12T08:40:32Z</time>
      </trkpt>
      <trkpt lat="49.32437" lon="-0.00389">
        <ele>51.8192</ele>
        <time>2018-08-12T08:40:34Z</time>
      </trkpt>
      <trkpt lat="49.32435" lon="-0.00395">
        <ele>52.5213</ele>
        <time>2018-08-12T08:40:39Z</time>
      </trkpt>
      <trkpt lat="49.32433" lon="-0.00402">
        <ele>52.7668</ele>
        <time>2018-08-12T08:40:43Z</time>
      </trkpt>
      <trkpt lat="49.32432" lon="-0.00407">
        <ele>52.9159</ele>
        <time>2018-08-12T08:40:46Z</time>
      </trkpt>
      <trkpt lat="49.32428" lon="-0.00415">
        <ele>52.6231</ele>
        <time>2018-08-12T08:40:51Z</time>
      </trkpt>
      <trkpt lat="49.32426" lon="-0.00419">
        <ele>51.8755</ele>
        <time>2018-08-12T08:40:54Z</time>
      </trkpt>
      <trkpt lat="49.32424" lon="-0.00425">
        <ele>51.6102</ele>
        <time>2018-08-12T08:40:58Z</time>
      </trkpt>
      <trkpt lat="49.32421" lon="-0.00433">
        <ele>51.0277</ele>
        <time>2018-08-12T08:41:03Z</time>
      </trkpt>
      <trkpt lat="49.32419" lon="-0.00439">
        <ele>50.9301</ele>
        <time>2018-08-12T08:41:06Z</time>
      </trkpt>
      <trkpt lat="49.32418" lon="-0.00442">
        <ele>51.1436</ele>
        <time>2018-08-12T08:41:08Z</time>
      </trkpt>
      <trkpt lat="49.32416" lon="-0.0045">
        <ele>51.8683</ele>
        <time>2018-08-12T08:41:13Z</time>
      </trkpt>
      <trkpt lat="49.32413" lon="-0.00458">
        <ele>51.9027</ele>
        <time>2018-08-12T08:41:18Z</time>
      </trkpt>
      <trkpt lat="49.32411" lon="-0.00466">
        <ele>51.4251</ele>
        <time>2018-08-12T08:41:23Z</time>
      </trkpt>
      <trkpt lat="49.32408" lon="-0.00475">
        <ele>51.3335</ele>
        <time>2018-08-12T08:41:28Z</time>
      </trkpt>
      <trkpt lat="49.32405" lon="-0.0048">
        <ele>51.3409</ele>
        <time>2018-08-12T08:41:32Z</time>
      </trkpt>
      <trkpt lat="49.32401" lon="-0.00487">
        <ele>50.6516</ele>
        <time>2018-08-12T08:41:38Z</time>
      </trkpt>
      <trkpt lat="49.32397" lon="-0.00492">
        <ele>50.504</ele>
        <time>2018-08-12T08:41:42Z</time>
      </trkpt>
      <trkpt lat="49.32391" lon="-0.00495">
        <ele>50.519</ele>
        <time>2018-08-12T08:41:48Z</time>
      </trkpt>
      <trkpt lat="49.32385" lon="-0.00497">
        <ele>50.6386</ele>
        <time>2018-08-12T08:41:53Z</time>
      </trkpt>
      <trkpt lat="49.32381" lon="-0.00501">
        <ele>50.7382</ele>
        <time>2018-08-12T08:41:57Z</time>
      </trkpt>
      <trkpt lat="49.32377" lon="-0.00504">
        <ele>50.2069</ele>
        <time>2018-08-12T08:42:01Z</time>
      </trkpt>
      <trkpt lat="49.32374" lon="-0.00506">
        <ele>49.8663</ele>
        <time>2018-08-12T08:42:03Z</time>
      </trkpt>
      <trkpt lat="49.32369" lon="-0.00509">
        <ele>49.283</ele>
        <time>2018-08-12T08:42:08Z</time>
      </trkpt>
      <trkpt lat="49.32366" lon="-0.0051">
        <ele>49.2254</ele>
        <time>2018-08-12T08:42:10Z</time>
      </trkpt>
      <trkpt lat="49.3236" lon="-0.0051">
        <ele>48.974</ele>
        <time>2018-08-12T08:42:14Z</time>
      </trkpt>
      <trkpt lat="49.32355" lon="-0.00512">
        <ele>48.7873</ele>
        <time>2018-08-12T08:42:19Z</time>
      </trkpt>
      <trkpt lat="49.3235" lon="-0.00516">
        <ele>49.2049</ele>
        <time>2018-08-12T08:42:23Z</time>
      </trkpt>
      <trkpt lat="49.32345" lon="-0.00517">
        <ele>49.2773</ele>
        <time>2018-08-12T08:42:27Z</time>
      </trkpt>
      <trkpt lat="49.32339" lon="-0.00515">
        <ele>49.4695</ele>
        <time>2018-08-12T08:42:31Z</time>
      </trkpt>
      <trkpt lat="49.32335" lon="-0.00517">
        <ele>50.358</ele>
        <time>2018-08-12T08:42:35Z</time>
      </trkpt>
      <trkpt lat="49.32331" lon="-0.00518">
        <ele>51.5661</ele>
        <time>2018-08-12T08:42:38Z</time>
      </trkpt>
      <trkpt lat="49.32327" lon="-0.0052">
        <ele>52.866</ele>
        <time>2018-08-12T08:42:41Z</time>
      </trkpt>
      <trkpt lat="49.32324" lon="-0.00521">
        <ele>53.6245</ele>
        <time>2018-08-12T08:42:43Z</time>
      </trkpt>
      <trkpt lat="49.32318" lon="-0.00526">
        <ele>54.5342</ele>
        <time>2018-08-12T08:42:47Z</time>
      </trkpt>
      <trkpt lat="49.32311" lon="-0.00528">
        <ele>54.8936</ele>
        <time>2018-08-12T08:42:52Z</time>
      </trkpt>
      <trkpt lat="49.32306" lon="-0.00532">
        <ele>56.0623</ele>
        <time>2018-08-12T08:42:55Z</time>
      </trkpt>
      <trkpt lat="49.32301" lon="-0.00528">
        <ele>53.5262</ele>
        <time>2018-08-12T08:43:01Z</time>
      </trkpt>
      <trkpt lat="49.32297" lon="-0.00528">
        <ele>53.9875</ele>
        <time>2018-08-12T08:43:05Z</time>
      </trkpt>
      <trkpt lat="49.32294" lon="-0.00528">
        <ele>54.3363</ele>
        <time>2018-08-12T08:43:07Z</time>
      </trkpt>
      <trkpt lat="49.3229" lon="-0.00527">
        <ele>55.0269</ele>
        <time>2018-08-12T08:43:12Z</time>
      </trkpt>
      <trkpt lat="49.32284" lon="-0.00526">
        <ele>56.4091</ele>
        <time>2018-08-12T08:43:18Z</time>
      </trkpt>
      <trkpt lat="49.3228" lon="-0.00529">
        <ele>58.0414</ele>
        <time>2018-08-12T08:43:22Z</time>
      </trkpt>
      <trkpt lat="49.32276" lon="-0.00532">
        <ele>58.2723</ele>
        <time>2018-08-12T08:43:26Z</time>
      </trkpt>
      <trkpt lat="49.32272" lon="-0.00539">
        <ele>59.1893</ele>
        <time>2018-08-12T08:43:33Z</time>
      </trkpt>
      <trkpt lat="49.32266" lon="-0.00544">
        <ele>61.2086</ele>
        <time>2018-08-12T08:43:39Z</time>
      </trkpt>
      <trkpt lat="49.32261" lon="-0.00545">
        <ele>62.2602</ele>
        <time>2018-08-12T08:43:44Z</time>
      </trkpt>
      <trkpt lat="49.32256" lon="-0.00545">
        <ele>63.5089</ele>
        <time>2018-08-12T08:43:48Z</time>
      </trkpt>
      <trkpt lat="49.32251" lon="-0.00547">
        <ele>64.1823</ele>
        <time>2018-08-12T08:43:52Z</time>
      </trkpt>
      <trkpt lat="49.32246" lon="-0.00547">
        <ele>64.6027</ele>
        <time>2018-08-12T08:43:57Z</time>
      </trkpt>
      <trkpt lat="49.32242" lon="-0.00545">
        <ele>64.0901</ele>
        <time>2018-08-12T08:44:03Z</time>
      </trkpt>
      <trkpt lat="49.32235" lon="-0.00539">
        <ele>63.9003</ele>
        <time>2018-08-12T08:44:09Z</time>
      </trkpt>
      <trkpt lat="49.32229" lon="-0.00535">
        <ele>64.3779</ele>
        <time>2018-08-12T08:44:12Z</time>
      </trkpt>
      <trkpt lat="49.32224" lon="-0.00533">
        <ele>65.1796</ele>
        <time>2018-08-12T08:44:16Z</time>
      </trkpt>
      <trkpt lat="49.32218" lon="-0.00536">
        <ele>66.8362</ele>
        <time>2018-08-12T08:44:22Z</time>
      </trkpt>
      <trkpt lat="49.32208" lon="-0.00538">
        <ele>68.6599</ele>
        <time>2018-08-12T08:44:30Z</time>
      </trkpt>
      <trkpt lat="49.32197" lon="-0.00545">
        <ele>65.3576</ele>
        <time>2018-08-12T08:44:39Z</time>
      </trkpt>
      <trkpt lat="49.32192" lon="-0.0055">
        <ele>64.2767</ele>
        <time>2018-08-12T08:44:47Z</time>
      </trkpt>
      <trkpt lat="49.32186" lon="-0.00553">
        <ele>65.9334</ele>
        <time>2018-08-12T08:44:54Z</time>
      </trkpt>
      <trkpt lat="49.3218" lon="-0.00554">
        <ele>67.2857</ele>
        <time>2018-08-12T08:45:01Z</time>
      </trkpt>
      <trkpt lat="49.32169" lon="-0.00559">
        <ele>64.6006</ele>
        <time>2018-08-12T08:45:18Z</time>
      </trkpt>
      <trkpt lat="49.32165" lon="-0.00563">
        <ele>63.4512</ele>
        <time>2018-08-12T08:45:22Z</time>
      </trkpt>
      <trkpt lat="49.32163" lon="-0.00564">
        <ele>62.7618</ele>
        <time>2018-08-12T08:45:24Z</time>
      </trkpt>
      <trkpt lat="49.32153" lon="-0.00567">
        <ele>64.3764</ele>
        <time>2018-08-12T08:45:39Z</time>
      </trkpt>
      <trkpt lat="49.32153" lon="-0.00567">
        <ele>64.3764</ele>
        <time>2018-08-12T08:48:11Z</time>
      </trkpt>
      <trkpt lat="49.32148" lon="-0.00575">
        <ele>51.2255</ele>
        <time>2018-08-12T08:48:50Z</time>
      </trkpt>
      <trkpt lat="49.32142" lon="-0.0057">
        <ele>51.4916</ele>
        <time>2018-08-12T08:49:03Z</time>
      </trkpt>
      <trkpt lat="49.32137" lon="-0.00563">
        <ele>53.1939</ele>
        <time>2018-08-12T08:49:06Z</time>
      </trkpt>
      <trkpt lat="49.32132" lon="-0.00555">
        <ele>56.6785</ele>
        <time>2018-08-12T08:49:10Z</time>
      </trkpt>
      <trkpt lat="49.32128" lon="-0.00553">
        <ele>60.6258</ele>
        <time>2018-08-12T08:49:15Z</time>
      </trkpt>
      <trkpt lat="49.32128" lon="-0.00553">
        <ele>60.6258</ele>
        <time>2018-08-12T08:49:23Z</time>
      </trkpt>
      <trkpt lat="49.32128" lon="-0.00553">
        <ele>60.6258</ele>
        <time>2018-08-12T08:49:25Z</time>
      </trkpt>
      <trkpt lat="49.32135" lon="-0.00523">
        <ele>66.8164</ele>
        <time>2018-08-12T08:51:07Z</time>
      </trkpt>
      <trkpt lat="49.32139" lon="-0.00516">
        <ele>66.5156</ele>
        <time>2018-08-12T08:51:24Z</time>
      </trkpt>
      <trkpt lat="49.32147" lon="-0.00515">
        <ele>65.0582</ele>
        <time>2018-08-12T08:51:37Z</time>
      </trkpt>
      <trkpt lat="49.32153" lon="-0.00503">
        <ele>65.3703</ele>
        <time>2018-08-12T08:51:47Z</time>
      </trkpt>
      <trkpt lat="49.32159" lon="-0.00507">
        <ele>66.7894</ele>
        <time>2018-08-12T08:52:09Z</time>
      </trkpt>
      <trkpt lat="49.32164" lon="-0.00506">
        <ele>68.802</ele>
        <time>2018-08-12T08:52:15Z</time>
      </trkpt>
      <trkpt lat="49.32169" lon="-0.00503">
        <ele>70.1814</ele>
        <time>2018-08-12T08:52:22Z</time>
      </trkpt>
      <trkpt lat="49.32174" lon="-0.00497">
        <ele>69.9821</ele>
        <time>2018-08-12T08:52:31Z</time>
      </trkpt>
      <trkpt lat="49.32176" lon="-0.00495">
        <ele>69.6703</ele>
        <time>2018-08-12T08:52:33Z</time>
      </trkpt>
      <trkpt lat="49.3218" lon="-0.00486">
        <ele>67.12</ele>
        <time>2018-08-12T08:52:42Z</time>
      </trkpt>
      <trkpt lat="49.32181" lon="-0.00478">
        <ele>64.789</ele>
        <time>2018-08-12T08:52:47Z</time>
      </trkpt>
      <trkpt lat="49.32186" lon="-0.00475">
        <ele>62.6949</ele>
        <time>2018-08-12T08:52:53Z</time>
      </trkpt>
      <trkpt lat="49.32186" lon="-0.00475">
        <ele>62.6949</ele>
        <time>2018-08-12T08:53:01Z</time>
      </trkpt>
      <trkpt lat="49.32186" lon="-0.00475">
        <ele>62.6949</ele>
        <time>2018-08-12T08:57:57Z</time>
      </trkpt>
      <trkpt lat="49.32187" lon="-0.00502">
        <ele>58.9654</ele>
        <time>2018-08-12T08:58:19Z</time>
      </trkpt>
      <trkpt lat="49.3219" lon="-0.0051">
        <ele>60.6592</ele>
        <time>2018-08-12T08:58:25Z</time>
      </trkpt>
      <trkpt lat="49.32191" lon="-0.00517">
        <ele>63.8622</ele>
        <time>2018-08-12T08:58:35Z</time>
      </trkpt>
      <trkpt lat="49.32193" lon="-0.00527">
        <ele>67.6843</ele>
        <time>2018-08-12T08:58:45Z</time>
      </trkpt>
      <trkpt lat="49.32198" lon="-0.00541">
        <ele>70.8462</ele>
        <time>2018-08-12T08:58:50Z</time>
      </trkpt>
      <trkpt lat="49.32198" lon="-0.00548">
        <ele>69.9089</ele>
        <time>2018-08-12T08:59:08Z</time>
      </trkpt>
      <trkpt lat="49.32201" lon="-0.00553">
        <ele>70.1353</ele>
        <time>2018-08-12T08:59:17Z</time>
      </trkpt>
      <trkpt lat="49.32203" lon="-0.0056">
        <ele>70.2853</ele>
        <time>2018-08-12T09:00:02Z</time>
      </trkpt>
      <trkpt lat="49.32204" lon="-0.00563">
        <ele>70.5269</ele>
        <time>2018-08-12T09:00:05Z</time>
      </trkpt>
      <trkpt lat="49.32207" lon="-0.0057">
        <ele>69.4791</ele>
        <time>2018-08-12T09:00:51Z</time>
      </trkpt>
      <trkpt lat="49.32209" lon="-0.00579">
        <ele>68.7737</ele>
        <time>2018-08-12T09:00:57Z</time>
      </trkpt>
      <trkpt lat="49.3221" lon="-0.00585">
        <ele>68.5982</ele>
        <time>2018-08-12T09:01:02Z</time>
      </trkpt>
      <trkpt lat="49.32211" lon="-0.00595">
        <ele>71.4012</ele>
        <time>2018-08-12T09:01:58Z</time>
      </trkpt>
      <trkpt lat="49.32211" lon="-0.00599">
        <ele>70.7402</ele>
        <time>2018-08-12T09:02:03Z</time>
      </trkpt>
      <trkpt lat="49.32213" lon="-0.00611">
        <ele>71.19</ele>
        <time>2018-08-12T09:02:11Z</time>
      </trkpt>
      <trkpt lat="49.32214" lon="-0.0062">
        <ele>70.771</ele>
        <time>2018-08-12T09:02:14Z</time>
      </trkpt>
      <trkpt lat="49.32216" lon="-0.00626">
        <ele>69.9332</ele>
        <time>2018-08-12T09:02:21Z</time>
      </trkpt>
      <trkpt lat="49.3222" lon="-0.00645">
        <ele>71.8383</ele>
        <time>2018-08-12T09:02:36Z</time>
      </trkpt>
      <trkpt lat="49.32224" lon="-0.00655">
        <ele>67.5293</ele>
        <time>2018-08-12T09:02:46Z</time>
      </trkpt>
      <trkpt lat="49.32226" lon="-0.00664">
        <ele>65.1031</ele>
        <time>2018-08-12T09:02:53Z</time>
      </trkpt>
      <trkpt lat="49.32229" lon="-0.00669">
        <ele>63.5177</ele>
        <time>2018-08-12T09:02:57Z</time>
      </trkpt>
      <trkpt lat="49.32231" lon="-0.00674">
        <ele>62.5591</ele>
        <time>2018-08-12T09:03:00Z</time>
      </trkpt>
      <trkpt lat="49.32232" lon="-0.00677">
        <ele>61.8991</ele>
        <time>2018-08-12T09:03:03Z</time>
      </trkpt>
      <trkpt lat="49.32234" lon="-0.00683">
        <ele>61.4212</ele>
        <time>2018-08-12T09:03:07Z</time>
      </trkpt>
      <trkpt lat="49.32236" lon="-0.00692">
        <ele>60.9373</ele>
        <time>2018-08-12T09:03:13Z</time>
      </trkpt>
      <trkpt lat="49.32236" lon="-0.00692">
        <ele>60.9373</ele>
        <time>2018-08-12T09:03:21Z</time>
      </trkpt>
      <trkpt lat="49.32236" lon="-0.00692">
        <ele>60.9373</ele>
        <time>2018-08-12T09:03:22Z</time>
      </trkpt>
      <trkpt lat="49.32237" lon="-0.00699">
        <ele>63.0281</ele>
        <time>2018-08-12T09:03:32Z</time>
      </trkpt>
      <trkpt lat="49.3224" lon="-0.00705">
        <ele>63.2064</ele>
        <time>2018-08-12T09:03:39Z</time>
      </trkpt>
      <trkpt lat="49.32241" lon="-0.00712">
        <ele>60.9874</ele>
        <time>2018-08-12T09:03:43Z</time>
      </trkpt>
      <trkpt lat="49.32244" lon="-0.00726">
        <ele>61.2484</ele>
        <time>2018-08-12T09:03:55Z</time>
      </trkpt>
      <trkpt lat="49.32247" lon="-0.00734">
        <ele>62.3042</ele>
        <time>2018-08-12T09:03:59Z</time>
      </trkpt>
      <trkpt lat="49.32249" lon="-0.0074">
        <ele>62.7045</ele>
        <time>2018-08-12T09:04:02Z</time>
      </trkpt>
      <trkpt lat="49.32251" lon="-0.00749">
        <ele>60.3645</ele>
        <time>2018-08-12T09:04:14Z</time>
      </trkpt>
      <trkpt lat="49.32255" lon="-0.00762">
        <ele>58.4989</ele>
        <time>2018-08-12T09:04:22Z</time>
      </trkpt>
      <trkpt lat="49.32258" lon="-0.00773">
        <ele>58.082</ele>
        <time>2018-08-12T09:04:28Z</time>
      </trkpt>
      <trkpt lat="49.32261" lon="-0.0078">
        <ele>59.2001</ele>
        <time>2018-08-12T09:04:34Z</time>
      </trkpt>
      <trkpt lat="49.32264" lon="-0.00787">
        <ele>60.0689</ele>
        <time>2018-08-12T09:04:40Z</time>
      </trkpt>
      <trkpt lat="49.32266" lon="-0.00794">
        <ele>60.1158</ele>
        <time>2018-08-12T09:04:44Z</time>
      </trkpt>
      <trkpt lat="49.32269" lon="-0.00805">
        <ele>59.7048</ele>
        <time>2018-08-12T09:04:51Z</time>
      </trkpt>
      <trkpt lat="49.3227" lon="-0.0081">
        <ele>58.9436</ele>
        <time>2018-08-12T09:04:54Z</time>
      </trkpt>
      <trkpt lat="49.32275" lon="-0.00819">
        <ele>56.8637</ele>
        <time>2018-08-12T09:05:02Z</time>
      </trkpt>
      <trkpt lat="49.32279" lon="-0.00821">
        <ele>55.7578</ele>
        <time>2018-08-12T09:05:07Z</time>
      </trkpt>
      <trkpt lat="49.32285" lon="-0.00823">
        <ele>53.698</ele>
        <time>2018-08-12T09:05:15Z</time>
      </trkpt>
      <trkpt lat="49.32288" lon="-0.00817">
        <ele>53.1442</ele>
        <time>2018-08-12T09:05:19Z</time>
      </trkpt>
      <trkpt lat="49.32292" lon="-0.00811">
        <ele>53.2902</ele>
        <time>2018-08-12T09:05:24Z</time>
      </trkpt>
      <trkpt lat="49.32293" lon="-0.00803">
        <ele>54.2065</ele>
        <time>2018-08-12T09:05:29Z</time>
      </trkpt>
      <trkpt lat="49.32294" lon="-0.00797">
        <ele>54.2477</ele>
        <time>2018-08-12T09:05:33Z</time>
      </trkpt>
      <trkpt lat="49.32295" lon="-0.00792">
        <ele>54.8605</ele>
        <time>2018-08-12T09:05:36Z</time>
      </trkpt>
      <trkpt lat="49.32297" lon="-0.00786">
        <ele>54.3547</ele>
        <time>2018-08-12T09:05:40Z</time>
      </trkpt>
      <trkpt lat="49.32298" lon="-0.0078">
        <ele>54.4426</ele>
        <time>2018-08-12T09:05:44Z</time>
      </trkpt>
      <trkpt lat="49.32301" lon="-0.00774">
        <ele>55.2327</ele>
        <time>2018-08-12T09:05:49Z</time>
      </trkpt>
      <trkpt lat="49.32304" lon="-0.00769">
        <ele>55.8324</ele>
        <time>2018-08-12T09:05:53Z</time>
      </trkpt>
      <trkpt lat="49.32306" lon="-0.00765">
        <ele>55.6606</ele>
        <time>2018-08-12T09:05:57Z</time>
      </trkpt>
      <trkpt lat="49.32308" lon="-0.00761">
        <ele>56.18</ele>
        <time>2018-08-12T09:06:00Z</time>
      </trkpt>
      <trkpt lat="49.32309" lon="-0.00758">
        <ele>56.5667</ele>
        <time>2018-08-12T09:06:03Z</time>
      </trkpt>
      <trkpt lat="49.32311" lon="-0.00749">
        <ele>56.7771</ele>
        <time>2018-08-12T09:06:09Z</time>
      </trkpt>
      <trkpt lat="49.32314" lon="-0.00741">
        <ele>56.6133</ele>
        <time>2018-08-12T09:06:15Z</time>
      </trkpt>
      <trkpt lat="49.32316" lon="-0.00733">
        <ele>55.9537</ele>
        <time>2018-08-12T09:06:20Z</time>
      </trkpt>
      <trkpt lat="49.32317" lon="-0.00726">
        <ele>56.4705</ele>
        <time>2018-08-12T09:06:25Z</time>
      </trkpt>
      <trkpt lat="49.32319" lon="-0.00717">
        <ele>57.6366</ele>
        <time>2018-08-12T09:06:29Z</time>
      </trkpt>
      <trkpt lat="49.32321" lon="-0.00712">
        <ele>58.0045</ele>
        <time>2018-08-12T09:06:32Z</time>
      </trkpt>
      <trkpt lat="49.32325" lon="-0.00705">
        <ele>57.7675</ele>
        <time>2018-08-12T09:06:38Z</time>
      </trkpt>
      <trkpt lat="49.32326" lon="-0.00699">
        <ele>56.4183</ele>
        <time>2018-08-12T09:06:43Z</time>
      </trkpt>
      <trkpt lat="49.32327" lon="-0.00695">
        <ele>55.7809</ele>
        <time>2018-08-12T09:06:46Z</time>
      </trkpt>
      <trkpt lat="49.32328" lon="-0.00688">
        <ele>54.8488</ele>
        <time>2018-08-12T09:06:51Z</time>
      </trkpt>
      <trkpt lat="49.32332" lon="-0.00682">
        <ele>54.2139</ele>
        <time>2018-08-12T09:06:56Z</time>
      </trkpt>
      <trkpt lat="49.32335" lon="-0.00677">
        <ele>53.6021</ele>
        <time>2018-08-12T09:07:00Z</time>
      </trkpt>
      <trkpt lat="49.32339" lon="-0.00668">
        <ele>54.3311</ele>
        <time>2018-08-12T09:07:06Z</time>
      </trkpt>
      <trkpt lat="49.32341" lon="-0.00663">
        <ele>54.1703</ele>
        <time>2018-08-12T09:07:10Z</time>
      </trkpt>
      <trkpt lat="49.32344" lon="-0.00657">
        <ele>54.1442</ele>
        <time>2018-08-12T09:07:15Z</time>
      </trkpt>
      <trkpt lat="49.32346" lon="-0.00653">
        <ele>54.3307</ele>
        <time>2018-08-12T09:07:18Z</time>
      </trkpt>
      <trkpt lat="49.32349" lon="-0.00647">
        <ele>54.5952</ele>
        <time>2018-08-12T09:07:23Z</time>
      </trkpt>
      <trkpt lat="49.32353" lon="-0.00642">
        <ele>55.075</ele>
        <time>2018-08-12T09:07:28Z</time>
      </trkpt>
      <trkpt lat="49.32357" lon="-0.00633">
        <ele>55.2662</ele>
        <time>2018-08-12T09:07:34Z</time>
      </trkpt>
      <trkpt lat="49.32358" lon="-0.00627">
        <ele>55.8887</ele>
        <time>2018-08-12T09:07:38Z</time>
      </trkpt>
      <trkpt lat="49.3236" lon="-0.00622">
        <ele>56.2984</ele>
        <time>2018-08-12T09:07:42Z</time>
      </trkpt>
      <trkpt lat="49.32361" lon="-0.00615">
        <ele>56.8797</ele>
        <time>2018-08-12T09:07:47Z</time>
      </trkpt>
      <trkpt lat="49.32364" lon="-0.00607">
        <ele>56.6525</ele>
        <time>2018-08-12T09:07:53Z</time>
      </trkpt>
      <trkpt lat="49.32366" lon="-0.00602">
        <ele>56.6472</ele>
        <time>2018-08-12T09:07:57Z</time>
      </trkpt>
      <trkpt lat="49.32367" lon="-0.00595">
        <ele>56.6431</ele>
        <time>2018-08-12T09:08:01Z</time>
      </trkpt>
      <trkpt lat="49.32368" lon="-0.0059">
        <ele>56.2873</ele>
        <time>2018-08-12T09:08:05Z</time>
      </trkpt>
      <trkpt lat="49.32368" lon="-0.00585">
        <ele>55.7121</ele>
        <time>2018-08-12T09:08:10Z</time>
      </trkpt>
      <trkpt lat="49.3237" lon="-0.00578">
        <ele>55.0282</ele>
        <time>2018-08-12T09:08:16Z</time>
      </trkpt>
      <trkpt lat="49.32373" lon="-0.00571">
        <ele>54.8673</ele>
        <time>2018-08-12T09:08:21Z</time>
      </trkpt>
      <trkpt lat="49.32376" lon="-0.00564">
        <ele>55.5176</ele>
        <time>2018-08-12T09:08:26Z</time>
      </trkpt>
      <trkpt lat="49.32379" lon="-0.00557">
        <ele>56.714</ele>
        <time>2018-08-12T09:08:32Z</time>
      </trkpt>
      <trkpt lat="49.32381" lon="-0.00553">
        <ele>57.0071</ele>
        <time>2018-08-12T09:08:35Z</time>
      </trkpt>
      <trkpt lat="49.32382" lon="-0.00545">
        <ele>57.38</ele>
        <time>2018-08-12T09:08:40Z</time>
      </trkpt>
      <trkpt lat="49.32384" lon="-0.00538">
        <ele>57.991</ele>
        <time>2018-08-12T09:08:48Z</time>
      </trkpt>
      <trkpt lat="49.32385" lon="-0.0053">
        <ele>58.1422</ele>
        <time>2018-08-12T09:08:54Z</time>
      </trkpt>
      <trkpt lat="49.32386" lon="-0.00526">
        <ele>58.6189</ele>
        <time>2018-08-12T09:08:56Z</time>
      </trkpt>
      <trkpt lat="49.32387" lon="-0.00521">
        <ele>59.8152</ele>
        <time>2018-08-12T09:08:59Z</time>
      </trkpt>
      <trkpt lat="49.3239" lon="-0.00512">
        <ele>61.9613</ele>
        <time>2018-08-12T09:09:05Z</time>
      </trkpt>
      <trkpt lat="49.32392" lon="-0.00505">
        <ele>62.3915</ele>
        <time>2018-08-12T09:09:10Z</time>
      </trkpt>
      <trkpt lat="49.32394" lon="-0.005">
        <ele>61.8755</ele>
        <time>2018-08-12T09:09:13Z</time>
      </trkpt>
      <trkpt lat="49.32395" lon="-0.00493">
        <ele>61.8641</ele>
        <time>2018-08-12T09:09:18Z</time>
      </trkpt>
      <trkpt lat="49.32395" lon="-0.00489">
        <ele>61.4409</ele>
        <time>2018-08-12T09:09:20Z</time>
      </trkpt>
      <trkpt lat="49.32399" lon="-0.00483">
        <ele>61.0304</ele>
        <time>2018-08-12T09:09:25Z</time>
      </trkpt>
      <trkpt lat="49.324" lon="-0.00473">
        <ele>60.9391</ele>
        <time>2018-08-12T09:09:30Z</time>
      </trkpt>
      <trkpt lat="49.32402" lon="-0.00463">
        <ele>61.2868</ele>
        <time>2018-08-12T09:09:37Z</time>
      </trkpt>
      <trkpt lat="49.32403" lon="-0.00459">
        <ele>61.7907</ele>
        <time>2018-08-12T09:09:39Z</time>
      </trkpt>
      <trkpt lat="49.32408" lon="-0.00455">
        <ele>62.7148</ele>
        <time>2018-08-12T09:09:44Z</time>
      </trkpt>
      <trkpt lat="49.3241" lon="-0.00449">
        <ele>63.087</ele>
        <time>2018-08-12T09:09:49Z</time>
      </trkpt>
      <trkpt lat="49.32412" lon="-0.00442">
        <ele>63.201</ele>
        <time>2018-08-12T09:09:54Z</time>
      </trkpt>
      <trkpt lat="49.32413" lon="-0.00438">
        <ele>63.1822</ele>
        <time>2018-08-12T09:09:56Z</time>
      </trkpt>
      <trkpt lat="49.32414" lon="-0.00432">
        <ele>63.1876</ele>
        <time>2018-08-12T09:10:00Z</time>
      </trkpt>
      <trkpt lat="49.32418" lon="-0.00426">
        <ele>63.4693</ele>
        <time>2018-08-12T09:10:04Z</time>
      </trkpt>
      <trkpt lat="49.3242" lon="-0.0042">
        <ele>63.5354</ele>
        <time>2018-08-12T09:10:09Z</time>
      </trkpt>
      <trkpt lat="49.32421" lon="-0.00417">
        <ele>62.9848</ele>
        <time>2018-08-12T09:10:12Z</time>
      </trkpt>
      <trkpt lat="49.32424" lon="-0.0041">
        <ele>62.7229</ele>
        <time>2018-08-12T09:10:17Z</time>
      </trkpt>
      <trkpt lat="49.32425" lon="-0.00404">
        <ele>62.8299</ele>
        <time>2018-08-12T09:10:21Z</time>
      </trkpt>
      <trkpt lat="49.32428" lon="-0.00397">
        <ele>63.5666</ele>
        <time>2018-08-12T09:10:26Z</time>
      </trkpt>
      <trkpt lat="49.32429" lon="-0.00394">
        <ele>63.6207</ele>
        <time>2018-08-12T09:10:28Z</time>
      </trkpt>
      <trkpt lat="49.32431" lon="-0.00389">
        <ele>63.5415</ele>
        <time>2018-08-12T09:10:32Z</time>
      </trkpt>
      <trkpt lat="49.32433" lon="-0.00382">
        <ele>63.9442</ele>
        <time>2018-08-12T09:10:36Z</time>
      </trkpt>
      <trkpt lat="49.32435" lon="-0.00377">
        <ele>63.8761</ele>
        <time>2018-08-12T09:10:40Z</time>
      </trkpt>
      <trkpt lat="49.32436" lon="-0.00371">
        <ele>63.3586</ele>
        <time>2018-08-12T09:10:44Z</time>
      </trkpt>
      <trkpt lat="49.32437" lon="-0.00363">
        <ele>61.7634</ele>
        <time>2018-08-12T09:10:48Z</time>
      </trkpt>
      <trkpt lat="49.32441" lon="-0.00357">
        <ele>60.953</ele>
        <time>2018-08-12T09:10:53Z</time>
      </trkpt>
      <trkpt lat="49.32443" lon="-0.0035">
        <ele>60.1269</ele>
        <time>2018-08-12T09:10:57Z</time>
      </trkpt>
      <trkpt lat="49.32444" lon="-0.00347">
        <ele>60.2985</ele>
        <time>2018-08-12T09:10:59Z</time>
      </trkpt>
      <trkpt lat="49.32446" lon="-0.00339">
        <ele>60.6615</ele>
        <time>2018-08-12T09:11:04Z</time>
      </trkpt>
      <trkpt lat="49.32448" lon="-0.00332">
        <ele>60.2589</ele>
        <time>2018-08-12T09:11:09Z</time>
      </trkpt>
      <trkpt lat="49.32451" lon="-0.00325">
        <ele>60.4978</ele>
        <time>2018-08-12T09:11:15Z</time>
      </trkpt>
      <trkpt lat="49.32453" lon="-0.00315">
        <ele>60.6305</ele>
        <time>2018-08-12T09:11:20Z</time>
      </trkpt>
      <trkpt lat="49.32457" lon="-0.0031">
        <ele>60.5172</ele>
        <time>2018-08-12T09:11:25Z</time>
      </trkpt>
      <trkpt lat="49.32461" lon="-0.00305">
        <ele>59.7554</ele>
        <time>2018-08-12T09:11:32Z</time>
      </trkpt>
      <trkpt lat="49.32463" lon="-0.00297">
        <ele>59.3568</ele>
        <time>2018-08-12T09:11:42Z</time>
      </trkpt>
      <trkpt lat="49.32467" lon="-0.0029">
        <ele>59.6351</ele>
        <time>2018-08-12T09:11:48Z</time>
      </trkpt>
      <trkpt lat="49.32469" lon="-0.00283">
        <ele>58.4417</ele>
        <time>2018-08-12T09:11:54Z</time>
      </trkpt>
      <trkpt lat="49.3247" lon="-0.00278">
        <ele>57.7265</ele>
        <time>2018-08-12T09:11:58Z</time>
      </trkpt>
      <trkpt lat="49.32471" lon="-0.00275">
        <ele>57.7727</ele>
        <time>2018-08-12T09:12:00Z</time>
      </trkpt>
      <trkpt lat="49.32473" lon="-0.00271">
        <ele>57.8882</ele>
        <time>2018-08-12T09:12:02Z</time>
      </trkpt>
      <trkpt lat="49.32475" lon="-0.00264">
        <ele>57.9213</ele>
        <time>2018-08-12T09:12:07Z</time>
      </trkpt>
      <trkpt lat="49.32477" lon="-0.00254">
        <ele>57.9065</ele>
        <time>2018-08-12T09:12:13Z</time>
      </trkpt>
      <trkpt lat="49.32478" lon="-0.00247">
        <ele>57.4969</ele>
        <time>2018-08-12T09:12:17Z</time>
      </trkpt>
      <trkpt lat="49.32478" lon="-0.00244">
        <ele>57.3426</ele>
        <time>2018-08-12T09:12:19Z</time>
      </trkpt>
      <trkpt lat="49.32482" lon="-0.00238">
        <ele>56.8946</ele>
        <time>2018-08-12T09:12:25Z</time>
      </trkpt>
      <trkpt lat="49.32485" lon="-0.00231">
        <ele>56.4447</ele>
        <time>2018-08-12T09:12:30Z</time>
      </trkpt>
      <trkpt lat="49.32489" lon="-0.00222">
        <ele>56.5273</ele>
        <time>2018-08-12T09:12:36Z</time>
      </trkpt>
      <trkpt lat="49.32491" lon="-0.00214">
        <ele>56.2312</ele>
        <time>2018-08-12T09:12:40Z</time>
      </trkpt>
      <trkpt lat="49.32495" lon="-0.00208">
        <ele>56.2066</ele>
        <time>2018-08-12T09:12:46Z</time>
      </trkpt>
      <trkpt lat="49.32497" lon="-0.002">
        <ele>57.188</ele>
        <time>2018-08-12T09:12:51Z</time>
      </trkpt>
      <trkpt lat="49.32499" lon="-0.00192">
        <ele>58.2449</ele>
        <time>2018-08-12T09:12:56Z</time>
      </trkpt>
      <trkpt lat="49.325" lon="-0.00188">
        <ele>58.5332</ele>
        <time>2018-08-12T09:12:59Z</time>
      </trkpt>
      <trkpt lat="49.32503" lon="-0.00181">
        <ele>60.1809</ele>
        <time>2018-08-12T09:13:05Z</time>
      </trkpt>
      <trkpt lat="49.32505" lon="-0.00174">
        <ele>60.9605</ele>
        <time>2018-08-12T09:13:09Z</time>
      </trkpt>
      <trkpt lat="49.32505" lon="-0.00164">
        <ele>61.6522</ele>
        <time>2018-08-12T09:13:15Z</time>
      </trkpt>
      <trkpt lat="49.32507" lon="-0.00157">
        <ele>62.9535</ele>
        <time>2018-08-12T09:13:20Z</time>
      </trkpt>
      <trkpt lat="49.32508" lon="-0.00153">
        <ele>63.9009</ele>
        <time>2018-08-12T09:13:22Z</time>
      </trkpt>
      <trkpt lat="49.32513" lon="-0.00145">
        <ele>64.9125</ele>
        <time>2018-08-12T09:13:29Z</time>
      </trkpt>
      <trkpt lat="49.32514" lon="-0.00142">
        <ele>65.4311</ele>
        <time>2018-08-12T09:13:31Z</time>
      </trkpt>
      <trkpt lat="49.32516" lon="-0.00138">
        <ele>66.1287</ele>
        <time>2018-08-12T09:13:33Z</time>
      </trkpt>
      <trkpt lat="49.3252" lon="-0.00132">
        <ele>66.5986</ele>
        <time>2018-08-12T09:13:38Z</time>
      </trkpt>
      <trkpt lat="49.32523" lon="-0.00126">
        <ele>66.7635</ele>
        <time>2018-08-12T09:13:43Z</time>
      </trkpt>
      <trkpt lat="49.32524" lon="-0.00124">
        <ele>66.5935</ele>
        <time>2018-08-12T09:13:45Z</time>
      </trkpt>
      <trkpt lat="49.32527" lon="-0.00119">
        <ele>66.1876</ele>
        <time>2018-08-12T09:13:49Z</time>
      </trkpt>
      <trkpt lat="49.3253" lon="-0.00112">
        <ele>65.1851</ele>
        <time>2018-08-12T09:13:54Z</time>
      </trkpt>
      <trkpt lat="49.32531" lon="-0.00103">
        <ele>64.4383</ele>
        <time>2018-08-12T09:13:59Z</time>
      </trkpt>
      <trkpt lat="49.32532" lon="-0.00097">
        <ele>64.0659</ele>
        <time>2018-08-12T09:14:02Z</time>
      </trkpt>
      <trkpt lat="49.32534" lon="-0.00091">
        <ele>63.3648</ele>
        <time>2018-08-12T09:14:06Z</time>
      </trkpt>
      <trkpt lat="49.32535" lon="-0.00087">
        <ele>63.1929</ele>
        <time>2018-08-12T09:14:08Z</time>
      </trkpt>
      <trkpt lat="49.32539" lon="-0.00081">
        <ele>62.485</ele>
        <time>2018-08-12T09:14:14Z</time>
      </trkpt>
      <trkpt lat="49.32542" lon="-0.00078">
        <ele>62.1107</ele>
        <time>2018-08-12T09:14:17Z</time>
      </trkpt>
      <trkpt lat="49.32546" lon="-0.00075">
        <ele>61.9828</ele>
        <time>2018-08-12T09:14:22Z</time>
      </trkpt>
      <trkpt lat="49.32549" lon="-0.00067">
        <ele>61.1978</ele>
        <time>2018-08-12T09:14:28Z</time>
      </trkpt>
      <trkpt lat="49.32552" lon="-0.00061">
        <ele>61.0749</ele>
        <time>2018-08-12T09:14:34Z</time>
      </trkpt>
      <trkpt lat="49.32554" lon="-0.00052">
        <ele>61.1206</ele>
        <time>2018-08-12T09:14:39Z</time>
      </trkpt>
      <trkpt lat="49.32556" lon="-0.00044">
        <ele>60.4761</ele>
        <time>2018-08-12T09:14:44Z</time>
      </trkpt>
      <trkpt lat="49.32558" lon="-0.00035">
        <ele>60.5222</ele>
        <time>2018-08-12T09:14:49Z</time>
      </trkpt>
      <trkpt lat="49.32559" lon="-0.0003">
        <ele>60.4018</ele>
        <time>2018-08-12T09:14:53Z</time>
      </trkpt>
      <trkpt lat="49.32563" lon="-0.00023">
        <ele>60.2663</ele>
        <time>2018-08-12T09:14:59Z</time>
      </trkpt>
      <trkpt lat="49.32565" lon="-0.00014">
        <ele>60.2883</ele>
        <time>2018-08-12T09:15:05Z</time>
      </trkpt>
      <trkpt lat="49.32567" lon="-3.0E-5">
        <ele>60.7584</ele>
        <time>2018-08-12T09:15:11Z</time>
      </trkpt>
      <trkpt lat="49.32569" lon="5.0E-5">
        <ele>59.9214</ele>
        <time>2018-08-12T09:15:18Z</time>
      </trkpt>
      <trkpt lat="49.3257" lon="0.00013">
        <ele>59.4124</ele>
        <time>2018-08-12T09:15:24Z</time>
      </trkpt>
      <trkpt lat="49.32571" lon="0.00017">
        <ele>59.5489</ele>
        <time>2018-08-12T09:15:27Z</time>
      </trkpt>
      <trkpt lat="49.32572" lon="0.00021">
        <ele>59.617</ele>
        <time>2018-08-12T09:15:29Z</time>
      </trkpt>
      <trkpt lat="49.32574" lon="0.00029">
        <ele>59.4004</ele>
        <time>2018-08-12T09:15:34Z</time>
      </trkpt>
      <trkpt lat="49.32575" lon="0.00032">
        <ele>59.3204</ele>
        <time>2018-08-12T09:15:36Z</time>
      </trkpt>
      <trkpt lat="49.32577" lon="0.00039">
        <ele>59.6567</ele>
        <time>2018-08-12T09:15:40Z</time>
      </trkpt>
      <trkpt lat="49.32578" lon="0.00042">
        <ele>60.4093</ele>
        <time>2018-08-12T09:15:42Z</time>
      </trkpt>
      <trkpt lat="49.3258" lon="0.00046">
        <ele>61.0959</ele>
        <time>2018-08-12T09:15:45Z</time>
      </trkpt>
      <trkpt lat="49.32583" lon="0.00056">
        <ele>61.8178</ele>
        <time>2018-08-12T09:15:51Z</time>
      </trkpt>
      <trkpt lat="49.32585" lon="0.00062">
        <ele>62.3957</ele>
        <time>2018-08-12T09:15:56Z</time>
      </trkpt>
      <trkpt lat="49.32588" lon="0.00072">
        <ele>61.2103</ele>
        <time>2018-08-12T09:16:02Z</time>
      </trkpt>
      <trkpt lat="49.32589" lon="0.00078">
        <ele>60.5463</ele>
        <time>2018-08-12T09:16:05Z</time>
      </trkpt>
      <trkpt lat="49.3259" lon="0.00082">
        <ele>60.4452</ele>
        <time>2018-08-12T09:16:07Z</time>
      </trkpt>
      <trkpt lat="49.32591" lon="0.00092">
        <ele>60.92</ele>
        <time>2018-08-12T09:16:12Z</time>
      </trkpt>
      <trkpt lat="49.32592" lon="0.00099">
        <ele>61.5307</ele>
        <time>2018-08-12T09:16:17Z</time>
      </trkpt>
      <trkpt lat="49.32594" lon="0.00103">
        <ele>62.544</ele>
        <time>2018-08-12T09:16:20Z</time>
      </trkpt>
      <trkpt lat="49.32598" lon="0.00109">
        <ele>63.4491</ele>
        <time>2018-08-12T09:16:25Z</time>
      </trkpt>
      <trkpt lat="49.326" lon="0.00111">
        <ele>63.5483</ele>
        <time>2018-08-12T09:16:27Z</time>
      </trkpt>
      <trkpt lat="49.32602" lon="0.00114">
        <ele>63.3356</ele>
        <time>2018-08-12T09:16:30Z</time>
      </trkpt>
      <trkpt lat="49.32604" lon="0.00116">
        <ele>63.3432</ele>
        <time>2018-08-12T09:16:33Z</time>
      </trkpt>
      <trkpt lat="49.32606" lon="0.00123">
        <ele>63.1998</ele>
        <time>2018-08-12T09:16:38Z</time>
      </trkpt>
      <trkpt lat="49.32609" lon="0.00129">
        <ele>62.8783</ele>
        <time>2018-08-12T09:16:42Z</time>
      </trkpt>
      <trkpt lat="49.32611" lon="0.00136">
        <ele>61.4796</ele>
        <time>2018-08-12T09:16:47Z</time>
      </trkpt>
      <trkpt lat="49.32614" lon="0.00142">
        <ele>60.5951</ele>
        <time>2018-08-12T09:16:51Z</time>
      </trkpt>
      <trkpt lat="49.32618" lon="0.00149">
        <ele>60.301</ele>
        <time>2018-08-12T09:16:56Z</time>
      </trkpt>
      <trkpt lat="49.32621" lon="0.00156">
        <ele>59.8566</ele>
        <time>2018-08-12T09:17:00Z</time>
      </trkpt>
      <trkpt lat="49.32624" lon="0.00161">
        <ele>60.1381</ele>
        <time>2018-08-12T09:17:04Z</time>
      </trkpt>
      <trkpt lat="49.32628" lon="0.00168">
        <ele>60.8786</ele>
        <time>2018-08-12T09:17:08Z</time>
      </trkpt>
      <trkpt lat="49.3263" lon="0.00174">
        <ele>61.6115</ele>
        <time>2018-08-12T09:17:12Z</time>
      </trkpt>
      <trkpt lat="49.32632" lon="0.00179">
        <ele>60.7386</ele>
        <time>2018-08-12T09:17:16Z</time>
      </trkpt>
      <trkpt lat="49.32633" lon="0.00187">
        <ele>59.9224</ele>
        <time>2018-08-12T09:17:20Z</time>
      </trkpt>
      <trkpt lat="49.32634" lon="0.00194">
        <ele>59.7393</ele>
        <time>2018-08-12T09:17:23Z</time>
      </trkpt>
      <trkpt lat="49.32634" lon="0.00198">
        <ele>59.8442</ele>
        <time>2018-08-12T09:17:25Z</time>
      </trkpt>
      <trkpt lat="49.32637" lon="0.00207">
        <ele>59.0643</ele>
        <time>2018-08-12T09:17:32Z</time>
      </trkpt>
      <trkpt lat="49.32638" lon="0.00211">
        <ele>57.9472</ele>
        <time>2018-08-12T09:17:35Z</time>
      </trkpt>
      <trkpt lat="49.3264" lon="0.00216">
        <ele>57.0111</ele>
        <time>2018-08-12T09:17:38Z</time>
      </trkpt>
      <trkpt lat="49.32643" lon="0.00221">
        <ele>56.5811</ele>
        <time>2018-08-12T09:17:43Z</time>
      </trkpt>
      <trkpt lat="49.32647" lon="0.00229">
        <ele>57.5455</ele>
        <time>2018-08-12T09:17:48Z</time>
      </trkpt>
      <trkpt lat="49.32651" lon="0.00234">
        <ele>58.4641</ele>
        <time>2018-08-12T09:17:54Z</time>
      </trkpt>
      <trkpt lat="49.32653" lon="0.00237">
        <ele>58.9161</ele>
        <time>2018-08-12T09:17:57Z</time>
      </trkpt>
      <trkpt lat="49.32656" lon="0.00246">
        <ele>58.6897</ele>
        <time>2018-08-12T09:18:03Z</time>
      </trkpt>
      <trkpt lat="49.32658" lon="0.0025">
        <ele>58.3619</ele>
        <time>2018-08-12T09:18:06Z</time>
      </trkpt>
      <trkpt lat="49.32662" lon="0.00257">
        <ele>58.2189</ele>
        <time>2018-08-12T09:18:12Z</time>
      </trkpt>
      <trkpt lat="49.32666" lon="0.00261">
        <ele>58.6005</ele>
        <time>2018-08-12T09:18:17Z</time>
      </trkpt>
      <trkpt lat="49.32669" lon="0.00267">
        <ele>59.135</ele>
        <time>2018-08-12T09:18:21Z</time>
      </trkpt>
      <trkpt lat="49.32671" lon="0.00273">
        <ele>59.1211</ele>
        <time>2018-08-12T09:18:25Z</time>
      </trkpt>
      <trkpt lat="49.32672" lon="0.00277">
        <ele>59.5335</ele>
        <time>2018-08-12T09:18:28Z</time>
      </trkpt>
      <trkpt lat="49.32674" lon="0.00281">
        <ele>58.9561</ele>
        <time>2018-08-12T09:18:31Z</time>
      </trkpt>
      <trkpt lat="49.32676" lon="0.00285">
        <ele>58.7239</ele>
        <time>2018-08-12T09:18:34Z</time>
      </trkpt>
      <trkpt lat="49.32677" lon="0.00288">
        <ele>58.2102</ele>
        <time>2018-08-12T09:18:36Z</time>
      </trkpt>
      <trkpt lat="49.32681" lon="0.00297">
        <ele>57.1659</ele>
        <time>2018-08-12T09:18:42Z</time>
      </trkpt>
      <trkpt lat="49.32683" lon="0.00301">
        <ele>56.9788</ele>
        <time>2018-08-12T09:18:45Z</time>
      </trkpt>
      <trkpt lat="49.32686" lon="0.00307">
        <ele>56.3573</ele>
        <time>2018-08-12T09:18:50Z</time>
      </trkpt>
      <trkpt lat="49.32689" lon="0.00311">
        <ele>56.1211</ele>
        <time>2018-08-12T09:18:54Z</time>
      </trkpt>
      <trkpt lat="49.32691" lon="0.00315">
        <ele>55.673</ele>
        <time>2018-08-12T09:18:56Z</time>
      </trkpt>
      <trkpt lat="49.32693" lon="0.00321">
        <ele>55.064</ele>
        <time>2018-08-12T09:18:59Z</time>
      </trkpt>
      <trkpt lat="49.32695" lon="0.00324">
        <ele>54.89</ele>
        <time>2018-08-12T09:19:01Z</time>
      </trkpt>
      <trkpt lat="49.32698" lon="0.0033">
        <ele>54.076</ele>
        <time>2018-08-12T09:19:07Z</time>
      </trkpt>
      <trkpt lat="49.32701" lon="0.00338">
        <ele>53.0155</ele>
        <time>2018-08-12T09:19:12Z</time>
      </trkpt>
      <trkpt lat="49.32703" lon="0.00343">
        <ele>52.434</ele>
        <time>2018-08-12T09:19:15Z</time>
      </trkpt>
      <trkpt lat="49.32706" lon="0.00352">
        <ele>51.8708</ele>
        <time>2018-08-12T09:19:21Z</time>
      </trkpt>
      <trkpt lat="49.32708" lon="0.00359">
        <ele>51.4756</ele>
        <time>2018-08-12T09:19:25Z</time>
      </trkpt>
      <trkpt lat="49.32712" lon="0.00365">
        <ele>50.4535</ele>
        <time>2018-08-12T09:19:29Z</time>
      </trkpt>
      <trkpt lat="49.32715" lon="0.00371">
        <ele>50.5675</ele>
        <time>2018-08-12T09:19:34Z</time>
      </trkpt>
      <trkpt lat="49.32717" lon="0.00381">
        <ele>52.9985</ele>
        <time>2018-08-12T09:19:40Z</time>
      </trkpt>
      <trkpt lat="49.32717" lon="0.00385">
        <ele>53.4601</ele>
        <time>2018-08-12T09:19:42Z</time>
      </trkpt>
      <trkpt lat="49.32721" lon="0.00393">
        <ele>54.4585</ele>
        <time>2018-08-12T09:19:47Z</time>
      </trkpt>
      <trkpt lat="49.32725" lon="0.00398">
        <ele>54.197</ele>
        <time>2018-08-12T09:19:52Z</time>
      </trkpt>
      <trkpt lat="49.32728" lon="0.00405">
        <ele>53.3377</ele>
        <time>2018-08-12T09:19:57Z</time>
      </trkpt>
      <trkpt lat="49.3273" lon="0.00412">
        <ele>53.0443</ele>
        <time>2018-08-12T09:20:01Z</time>
      </trkpt>
      <trkpt lat="49.32732" lon="0.00419">
        <ele>53.3551</ele>
        <time>2018-08-12T09:20:05Z</time>
      </trkpt>
      <trkpt lat="49.32733" lon="0.00425">
        <ele>53.5154</ele>
        <time>2018-08-12T09:20:08Z</time>
      </trkpt>
      <trkpt lat="49.32737" lon="0.00431">
        <ele>53.2402</ele>
        <time>2018-08-12T09:20:13Z</time>
      </trkpt>
      <trkpt lat="49.32739" lon="0.00437">
        <ele>52.3042</ele>
        <time>2018-08-12T09:20:17Z</time>
      </trkpt>
      <trkpt lat="49.32741" lon="0.0044">
        <ele>51.5172</ele>
        <time>2018-08-12T09:20:20Z</time>
      </trkpt>
      <trkpt lat="49.32742" lon="0.00443">
        <ele>51.2513</ele>
        <time>2018-08-12T09:20:22Z</time>
      </trkpt>
      <trkpt lat="49.32744" lon="0.00447">
        <ele>50.9638</ele>
        <time>2018-08-12T09:20:25Z</time>
      </trkpt>
      <trkpt lat="49.32747" lon="0.00455">
        <ele>50.9523</ele>
        <time>2018-08-12T09:20:30Z</time>
      </trkpt>
      <trkpt lat="49.3275" lon="0.00462">
        <ele>52.1928</ele>
        <time>2018-08-12T09:20:36Z</time>
      </trkpt>
      <trkpt lat="49.32752" lon="0.00466">
        <ele>52.8538</ele>
        <time>2018-08-12T09:20:39Z</time>
      </trkpt>
      <trkpt lat="49.32755" lon="0.00472">
        <ele>52.6158</ele>
        <time>2018-08-12T09:20:43Z</time>
      </trkpt>
      <trkpt lat="49.32757" lon="0.00475">
        <ele>52.3688</ele>
        <time>2018-08-12T09:20:45Z</time>
      </trkpt>
      <trkpt lat="49.32759" lon="0.00484">
        <ele>53.7625</ele>
        <time>2018-08-12T09:20:51Z</time>
      </trkpt>
      <trkpt lat="49.32762" lon="0.00491">
        <ele>54.6968</ele>
        <time>2018-08-12T09:20:56Z</time>
      </trkpt>
      <trkpt lat="49.32764" lon="0.00501">
        <ele>56.106</ele>
        <time>2018-08-12T09:21:02Z</time>
      </trkpt>
      <trkpt lat="49.32765" lon="0.00505">
        <ele>56.1552</ele>
        <time>2018-08-12T09:21:04Z</time>
      </trkpt>
      <trkpt lat="49.32769" lon="0.0051">
        <ele>55.6963</ele>
        <time>2018-08-12T09:21:08Z</time>
      </trkpt>
      <trkpt lat="49.32772" lon="0.00515">
        <ele>55.7602</ele>
        <time>2018-08-12T09:21:12Z</time>
      </trkpt>
      <trkpt lat="49.32775" lon="0.00521">
        <ele>55.8247</ele>
        <time>2018-08-12T09:21:17Z</time>
      </trkpt>
      <trkpt lat="49.32777" lon="0.00529">
        <ele>55.225</ele>
        <time>2018-08-12T09:21:21Z</time>
      </trkpt>
      <trkpt lat="49.32779" lon="0.00536">
        <ele>54.7619</ele>
        <time>2018-08-12T09:21:26Z</time>
      </trkpt>
      <trkpt lat="49.32781" lon="0.00539">
        <ele>54.868</ele>
        <time>2018-08-12T09:21:28Z</time>
      </trkpt>
      <trkpt lat="49.32783" lon="0.00543">
        <ele>55.1139</ele>
        <time>2018-08-12T09:21:30Z</time>
      </trkpt>
      <trkpt lat="49.32784" lon="0.00547">
        <ele>55.3362</ele>
        <time>2018-08-12T09:21:33Z</time>
      </trkpt>
      <trkpt lat="49.32788" lon="0.00552">
        <ele>55.6473</ele>
        <time>2018-08-12T09:21:38Z</time>
      </trkpt>
      <trkpt lat="49.32789" lon="0.00559">
        <ele>57.3457</ele>
        <time>2018-08-12T09:21:43Z</time>
      </trkpt>
      <trkpt lat="49.32791" lon="0.00567">
        <ele>58.7258</ele>
        <time>2018-08-12T09:21:47Z</time>
      </trkpt>
      <trkpt lat="49.32793" lon="0.0057">
        <ele>58.6873</ele>
        <time>2018-08-12T09:21:49Z</time>
      </trkpt>
      <trkpt lat="49.32797" lon="0.00577">
        <ele>58.8248</ele>
        <time>2018-08-12T09:21:55Z</time>
      </trkpt>
      <trkpt lat="49.32799" lon="0.00581">
        <ele>58.7957</ele>
        <time>2018-08-12T09:21:58Z</time>
      </trkpt>
      <trkpt lat="49.32802" lon="0.00585">
        <ele>58.5769</ele>
        <time>2018-08-12T09:22:02Z</time>
      </trkpt>
      <trkpt lat="49.32804" lon="0.00589">
        <ele>58.0804</ele>
        <time>2018-08-12T09:22:06Z</time>
      </trkpt>
      <trkpt lat="49.32807" lon="0.00596">
        <ele>56.6606</ele>
        <time>2018-08-12T09:22:11Z</time>
      </trkpt>
      <trkpt lat="49.32811" lon="0.00602">
        <ele>55.0169</ele>
        <time>2018-08-12T09:22:16Z</time>
      </trkpt>
      <trkpt lat="49.32814" lon="0.0061">
        <ele>54.3686</ele>
        <time>2018-08-12T09:22:22Z</time>
      </trkpt>
      <trkpt lat="49.32816" lon="0.00614">
        <ele>54.8681</ele>
        <time>2018-08-12T09:22:25Z</time>
      </trkpt>
      <trkpt lat="49.32818" lon="0.0062">
        <ele>55.0507</ele>
        <time>2018-08-12T09:22:29Z</time>
      </trkpt>
      <trkpt lat="49.3282" lon="0.00624">
        <ele>55.8217</ele>
        <time>2018-08-12T09:22:32Z</time>
      </trkpt>
      <trkpt lat="49.32821" lon="0.00631">
        <ele>56.4226</ele>
        <time>2018-08-12T09:22:35Z</time>
      </trkpt>
      <trkpt lat="49.32825" lon="0.00639">
        <ele>57.8274</ele>
        <time>2018-08-12T09:22:41Z</time>
      </trkpt>
      <trkpt lat="49.32826" lon="0.00642">
        <ele>58.4928</ele>
        <time>2018-08-12T09:22:43Z</time>
      </trkpt>
      <trkpt lat="49.32829" lon="0.00648">
        <ele>58.9601</ele>
        <time>2018-08-12T09:22:47Z</time>
      </trkpt>
      <trkpt lat="49.32831" lon="0.00651">
        <ele>59.1293</ele>
        <time>2018-08-12T09:22:49Z</time>
      </trkpt>
      <trkpt lat="49.32834" lon="0.0066">
        <ele>58.1825</ele>
        <time>2018-08-12T09:22:55Z</time>
      </trkpt>
      <trkpt lat="49.32839" lon="0.00667">
        <ele>57.0664</ele>
        <time>2018-08-12T09:23:00Z</time>
      </trkpt>
      <trkpt lat="49.32842" lon="0.00675">
        <ele>55.7972</ele>
        <time>2018-08-12T09:23:05Z</time>
      </trkpt>
      <trkpt lat="49.32843" lon="0.00679">
        <ele>55.3846</ele>
        <time>2018-08-12T09:23:08Z</time>
      </trkpt>
      <trkpt lat="49.32845" lon="0.00686">
        <ele>55.4739</ele>
        <time>2018-08-12T09:23:12Z</time>
      </trkpt>
      <trkpt lat="49.32848" lon="0.00692">
        <ele>56.0379</ele>
        <time>2018-08-12T09:23:17Z</time>
      </trkpt>
      <trkpt lat="49.32853" lon="0.00697">
        <ele>57.4826</ele>
        <time>2018-08-12T09:23:21Z</time>
      </trkpt>
      <trkpt lat="49.32856" lon="0.00702">
        <ele>59.1795</ele>
        <time>2018-08-12T09:23:25Z</time>
      </trkpt>
      <trkpt lat="49.32861" lon="0.00708">
        <ele>59.8708</ele>
        <time>2018-08-12T09:23:30Z</time>
      </trkpt>
      <trkpt lat="49.32863" lon="0.00711">
        <ele>59.8042</ele>
        <time>2018-08-12T09:23:34Z</time>
      </trkpt>
      <trkpt lat="49.32865" lon="0.0072">
        <ele>59.7364</ele>
        <time>2018-08-12T09:23:39Z</time>
      </trkpt>
      <trkpt lat="49.32868" lon="0.00725">
        <ele>59.5826</ele>
        <time>2018-08-12T09:23:44Z</time>
      </trkpt>
      <trkpt lat="49.32871" lon="0.00732">
        <ele>59.4478</ele>
        <time>2018-08-12T09:23:49Z</time>
      </trkpt>
      <trkpt lat="49.32873" lon="0.00736">
        <ele>59.2731</ele>
        <time>2018-08-12T09:23:51Z</time>
      </trkpt>
      <trkpt lat="49.32875" lon="0.00742">
        <ele>59.0073</ele>
        <time>2018-08-12T09:23:54Z</time>
      </trkpt>
      <trkpt lat="49.32876" lon="0.00749">
        <ele>58.1764</ele>
        <time>2018-08-12T09:23:57Z</time>
      </trkpt>
      <trkpt lat="49.32879" lon="0.00755">
        <ele>56.4405</ele>
        <time>2018-08-12T09:24:02Z</time>
      </trkpt>
      <trkpt lat="49.32881" lon="0.0076">
        <ele>55.4028</ele>
        <time>2018-08-12T09:24:06Z</time>
      </trkpt>
      <trkpt lat="49.32883" lon="0.00766">
        <ele>55.4202</ele>
        <time>2018-08-12T09:24:10Z</time>
      </trkpt>
      <trkpt lat="49.32886" lon="0.00774">
        <ele>56.3902</ele>
        <time>2018-08-12T09:24:14Z</time>
      </trkpt>
      <trkpt lat="49.32887" lon="0.0078">
        <ele>57.2556</ele>
        <time>2018-08-12T09:24:17Z</time>
      </trkpt>
      <trkpt lat="49.32886" lon="0.00791">
        <ele>59.2137</ele>
        <time>2018-08-12T09:24:21Z</time>
      </trkpt>
      <trkpt lat="49.32889" lon="0.00798">
        <ele>60.2809</ele>
        <time>2018-08-12T09:24:26Z</time>
      </trkpt>
      <trkpt lat="49.32892" lon="0.00804">
        <ele>61.393</ele>
        <time>2018-08-12T09:24:31Z</time>
      </trkpt>
      <trkpt lat="49.32896" lon="0.00808">
        <ele>62.6298</ele>
        <time>2018-08-12T09:24:36Z</time>
      </trkpt>
      <trkpt lat="49.32899" lon="0.00811">
        <ele>63.0264</ele>
        <time>2018-08-12T09:24:39Z</time>
      </trkpt>
      <trkpt lat="49.32903" lon="0.00816">
        <ele>64.2575</ele>
        <time>2018-08-12T09:24:43Z</time>
      </trkpt>
      <trkpt lat="49.32905" lon="0.00819">
        <ele>64.6152</ele>
        <time>2018-08-12T09:24:46Z</time>
      </trkpt>
      <trkpt lat="49.32907" lon="0.00823">
        <ele>64.5663</ele>
        <time>2018-08-12T09:24:49Z</time>
      </trkpt>
      <trkpt lat="49.32912" lon="0.00828">
        <ele>65.1345</ele>
        <time>2018-08-12T09:24:53Z</time>
      </trkpt>
      <trkpt lat="49.32913" lon="0.00831">
        <ele>65.0563</ele>
        <time>2018-08-12T09:24:55Z</time>
      </trkpt>
      <trkpt lat="49.32917" lon="0.00835">
        <ele>64.6284</ele>
        <time>2018-08-12T09:25:00Z</time>
      </trkpt>
      <trkpt lat="49.32922" lon="0.00842">
        <ele>63.073</ele>
        <time>2018-08-12T09:25:06Z</time>
      </trkpt>
      <trkpt lat="49.32926" lon="0.00845">
        <ele>62.227</ele>
        <time>2018-08-12T09:25:10Z</time>
      </trkpt>
      <trkpt lat="49.32932" lon="0.00839">
        <ele>59.9024</ele>
        <time>2018-08-12T09:25:16Z</time>
      </trkpt>
      <trkpt lat="49.32937" lon="0.00836">
        <ele>58.7924</ele>
        <time>2018-08-12T09:25:20Z</time>
      </trkpt>
      <trkpt lat="49.32942" lon="0.00836">
        <ele>57.1178</ele>
        <time>2018-08-12T09:25:28Z</time>
      </trkpt>
      <trkpt lat="49.32943" lon="0.00835">
        <ele>56.2264</ele>
        <time>2018-08-12T09:25:37Z</time>
      </trkpt>
      <trkpt lat="49.32947" lon="0.0084">
        <ele>55.9571</ele>
        <time>2018-08-12T09:25:42Z</time>
      </trkpt>
      <trkpt lat="49.3295" lon="0.00845">
        <ele>56.5841</ele>
        <time>2018-08-12T09:25:49Z</time>
      </trkpt>
      <trkpt lat="49.32947" lon="0.0084">
        <ele>55.9571</ele>
        <time>2018-08-12T09:25:57Z</time>
      </trkpt>
      <trkpt lat="49.32951" lon="0.00846">
        <ele>56.5613</ele>
        <time>2018-08-12T09:27:35Z</time>
      </trkpt>
      <trkpt lat="49.32955" lon="0.00853">
        <ele>56.2024</ele>
        <time>2018-08-12T09:27:41Z</time>
      </trkpt>
      <trkpt lat="49.32958" lon="0.00858">
        <ele>55.8534</ele>
        <time>2018-08-12T09:27:46Z</time>
      </trkpt>
      <trkpt lat="49.32962" lon="0.00862">
        <ele>55.3017</ele>
        <time>2018-08-12T09:27:51Z</time>
      </trkpt>
      <trkpt lat="49.32964" lon="0.00868">
        <ele>54.8036</ele>
        <time>2018-08-12T09:28:01Z</time>
      </trkpt>
      <trkpt lat="49.32967" lon="0.00874">
        <ele>53.9678</ele>
        <time>2018-08-12T09:28:07Z</time>
      </trkpt>
      <trkpt lat="49.32967" lon="0.00874">
        <ele>53.9678</ele>
        <time>2018-08-12T09:28:14Z</time>
      </trkpt>
      <trkpt lat="49.32967" lon="0.00874">
        <ele>53.9678</ele>
        <time>2018-08-12T09:28:15Z</time>
      </trkpt>
      <trkpt lat="49.32971" lon="0.00879">
        <ele>51.3573</ele>
        <time>2018-08-12T09:40:35Z</time>
      </trkpt>
      <trkpt lat="49.32974" lon="0.00886">
        <ele>50.5212</ele>
        <time>2018-08-12T09:40:41Z</time>
      </trkpt>
      <trkpt lat="49.32976" lon="0.0089">
        <ele>50.1392</ele>
        <time>2018-08-12T09:40:44Z</time>
      </trkpt>
      <trkpt lat="49.32979" lon="0.00895">
        <ele>49.765</ele>
        <time>2018-08-12T09:40:50Z</time>
      </trkpt>
      <trkpt lat="49.32982" lon="0.00901">
        <ele>49.4432</ele>
        <time>2018-08-12T09:40:56Z</time>
      </trkpt>
      <trkpt lat="49.32986" lon="0.00907">
        <ele>49.1458</ele>
        <time>2018-08-12T09:41:02Z</time>
      </trkpt>
      <trkpt lat="49.32988" lon="0.00914">
        <ele>49.6597</ele>
        <time>2018-08-12T09:41:08Z</time>
      </trkpt>
      <trkpt lat="49.32989" lon="0.00918">
        <ele>50.0872</ele>
        <time>2018-08-12T09:41:11Z</time>
      </trkpt>
      <trkpt lat="49.3299" lon="0.00922">
        <ele>49.9286</ele>
        <time>2018-08-12T09:41:14Z</time>
      </trkpt>
      <trkpt lat="49.32993" lon="0.00929">
        <ele>49.2425</ele>
        <time>2018-08-12T09:41:20Z</time>
      </trkpt>
      <trkpt lat="49.32996" lon="0.00935">
        <ele>49.8015</ele>
        <time>2018-08-12T09:41:24Z</time>
      </trkpt>
      <trkpt lat="49.33" lon="0.0094">
        <ele>50.6704</ele>
        <time>2018-08-12T09:41:30Z</time>
      </trkpt>
      <trkpt lat="49.33003" lon="0.00946">
        <ele>50.7013</ele>
        <time>2018-08-12T09:41:35Z</time>
      </trkpt>
      <trkpt lat="49.33005" lon="0.00953">
        <ele>50.5011</ele>
        <time>2018-08-12T09:41:42Z</time>
      </trkpt>
      <trkpt lat="49.33007" lon="0.00957">
        <ele>50.1048</ele>
        <time>2018-08-12T09:41:47Z</time>
      </trkpt>
      <trkpt lat="49.33008" lon="0.0096">
        <ele>50.1033</ele>
        <time>2018-08-12T09:41:51Z</time>
      </trkpt>
      <trkpt lat="49.33009" lon="0.00967">
        <ele>50.0046</ele>
        <time>2018-08-12T09:41:58Z</time>
      </trkpt>
      <trkpt lat="49.33013" lon="0.00973">
        <ele>50.7581</ele>
        <time>2018-08-12T09:42:03Z</time>
      </trkpt>
      <trkpt lat="49.33018" lon="0.00978">
        <ele>51.4866</ele>
        <time>2018-08-12T09:42:30Z</time>
      </trkpt>
      <trkpt lat="49.33021" lon="0.00983">
        <ele>51.1532</ele>
        <time>2018-08-12T09:42:34Z</time>
      </trkpt>
      <trkpt lat="49.33023" lon="0.00986">
        <ele>50.611</ele>
        <time>2018-08-12T09:42:37Z</time>
      </trkpt>
      <trkpt lat="49.33027" lon="0.00992">
        <ele>50.4483</ele>
        <time>2018-08-12T09:42:43Z</time>
      </trkpt>
      <trkpt lat="49.33029" lon="0.00998">
        <ele>50.5564</ele>
        <time>2018-08-12T09:42:47Z</time>
      </trkpt>
      <trkpt lat="49.33031" lon="0.01">
        <ele>50.6911</ele>
        <time>2018-08-12T09:42:49Z</time>
      </trkpt>
      <trkpt lat="49.33035" lon="0.01004">
        <ele>49.9404</ele>
        <time>2018-08-12T09:42:54Z</time>
      </trkpt>
      <trkpt lat="49.33038" lon="0.0101">
        <ele>48.7866</ele>
        <time>2018-08-12T09:43:01Z</time>
      </trkpt>
      <trkpt lat="49.3304" lon="0.01014">
        <ele>48.6959</ele>
        <time>2018-08-12T09:43:05Z</time>
      </trkpt>
      <trkpt lat="49.33041" lon="0.01022">
        <ele>49.092</ele>
        <time>2018-08-12T09:43:11Z</time>
      </trkpt>
      <trkpt lat="49.33045" lon="0.01029">
        <ele>49.0254</ele>
        <time>2018-08-12T09:43:16Z</time>
      </trkpt>
      <trkpt lat="49.33047" lon="0.01033">
        <ele>49.4745</ele>
        <time>2018-08-12T09:43:19Z</time>
      </trkpt>
      <trkpt lat="49.3305" lon="0.01044">
        <ele>49.8538</ele>
        <time>2018-08-12T09:43:29Z</time>
      </trkpt>
      <trkpt lat="49.3305" lon="0.01053">
        <ele>50.5988</ele>
        <time>2018-08-12T09:43:35Z</time>
      </trkpt>
      <trkpt lat="49.33047" lon="0.01061">
        <ele>51.2559</ele>
        <time>2018-08-12T09:43:42Z</time>
      </trkpt>
      <trkpt lat="49.3304" lon="0.01067">
        <ele>53.2626</ele>
        <time>2018-08-12T09:43:56Z</time>
      </trkpt>
      <trkpt lat="49.33037" lon="0.01072">
        <ele>53.9635</ele>
        <time>2018-08-12T09:44:00Z</time>
      </trkpt>
      <trkpt lat="49.3303" lon="0.01069">
        <ele>53.406</ele>
        <time>2018-08-12T09:44:09Z</time>
      </trkpt>
      <trkpt lat="49.33026" lon="0.0107">
        <ele>53.4712</ele>
        <time>2018-08-12T09:44:13Z</time>
      </trkpt>
      <trkpt lat="49.3302" lon="0.01075">
        <ele>53.4338</ele>
        <time>2018-08-12T09:44:19Z</time>
      </trkpt>
      <trkpt lat="49.33016" lon="0.0108">
        <ele>53.3611</ele>
        <time>2018-08-12T09:44:23Z</time>
      </trkpt>
      <trkpt lat="49.33012" lon="0.01082">
        <ele>53.6502</ele>
        <time>2018-08-12T09:44:27Z</time>
      </trkpt>
      <trkpt lat="49.33008" lon="0.01084">
        <ele>54.5652</ele>
        <time>2018-08-12T09:44:30Z</time>
      </trkpt>
      <trkpt lat="49.33006" lon="0.01085">
        <ele>55.0707</ele>
        <time>2018-08-12T09:44:32Z</time>
      </trkpt>
      <trkpt lat="49.33003" lon="0.01087">
        <ele>55.5396</ele>
        <time>2018-08-12T09:44:34Z</time>
      </trkpt>
      <trkpt lat="49.32998" lon="0.0109">
        <ele>56.2526</ele>
        <time>2018-08-12T09:44:38Z</time>
      </trkpt>
      <trkpt lat="49.32995" lon="0.01092">
        <ele>56.6715</ele>
        <time>2018-08-12T09:44:40Z</time>
      </trkpt>
      <trkpt lat="49.32993" lon="0.01093">
        <ele>57.0489</ele>
        <time>2018-08-12T09:44:42Z</time>
      </trkpt>
      <trkpt lat="49.32989" lon="0.01095">
        <ele>57.4419</ele>
        <time>2018-08-12T09:44:46Z</time>
      </trkpt>
      <trkpt lat="49.32986" lon="0.01101">
        <ele>57.6396</ele>
        <time>2018-08-12T09:44:51Z</time>
      </trkpt>
      <trkpt lat="49.3298" lon="0.01109">
        <ele>58.0092</ele>
        <time>2018-08-12T09:45:00Z</time>
      </trkpt>
      <trkpt lat="49.32978" lon="0.01112">
        <ele>58.5679</ele>
        <time>2018-08-12T09:45:03Z</time>
      </trkpt>
      <trkpt lat="49.32973" lon="0.01115">
        <ele>59.1014</ele>
        <time>2018-08-12T09:45:07Z</time>
      </trkpt>
      <trkpt lat="49.3297" lon="0.01118">
        <ele>59.4287</ele>
        <time>2018-08-12T09:45:10Z</time>
      </trkpt>
      <trkpt lat="49.32964" lon="0.01119">
        <ele>58.3468</ele>
        <time>2018-08-12T09:45:15Z</time>
      </trkpt>
      <trkpt lat="49.32959" lon="0.01123">
        <ele>57.8159</ele>
        <time>2018-08-12T09:45:21Z</time>
      </trkpt>
      <trkpt lat="49.32954" lon="0.01127">
        <ele>58.7102</ele>
        <time>2018-08-12T09:45:25Z</time>
      </trkpt>
      <trkpt lat="49.32951" lon="0.01132">
        <ele>57.7948</ele>
        <time>2018-08-12T09:45:31Z</time>
      </trkpt>
      <trkpt lat="49.32947" lon="0.01138">
        <ele>57.7096</ele>
        <time>2018-08-12T09:45:37Z</time>
      </trkpt>
      <trkpt lat="49.32945" lon="0.0114">
        <ele>57.8554</ele>
        <time>2018-08-12T09:45:39Z</time>
      </trkpt>
      <trkpt lat="49.3294" lon="0.01142">
        <ele>57.964</ele>
        <time>2018-08-12T09:45:43Z</time>
      </trkpt>
      <trkpt lat="49.32937" lon="0.01144">
        <ele>57.9458</ele>
        <time>2018-08-12T09:45:45Z</time>
      </trkpt>
      <trkpt lat="49.32935" lon="0.01145">
        <ele>57.9748</ele>
        <time>2018-08-12T09:45:47Z</time>
      </trkpt>
      <trkpt lat="49.32932" lon="0.01147">
        <ele>58.0406</ele>
        <time>2018-08-12T09:45:50Z</time>
      </trkpt>
      <trkpt lat="49.32929" lon="0.01148">
        <ele>58.1351</ele>
        <time>2018-08-12T09:45:53Z</time>
      </trkpt>
      <trkpt lat="49.32925" lon="0.01151">
        <ele>58.0019</ele>
        <time>2018-08-12T09:45:56Z</time>
      </trkpt>
      <trkpt lat="49.32922" lon="0.01153">
        <ele>57.4325</ele>
        <time>2018-08-12T09:45:59Z</time>
      </trkpt>
      <trkpt lat="49.32917" lon="0.01158">
        <ele>55.5391</ele>
        <time>2018-08-12T09:46:05Z</time>
      </trkpt>
      <trkpt lat="49.32911" lon="0.01161">
        <ele>55.474</ele>
        <time>2018-08-12T09:46:10Z</time>
      </trkpt>
      <trkpt lat="49.32906" lon="0.01165">
        <ele>56.3737</ele>
        <time>2018-08-12T09:46:14Z</time>
      </trkpt>
      <trkpt lat="49.329" lon="0.01173">
        <ele>58.2032</ele>
        <time>2018-08-12T09:46:23Z</time>
      </trkpt>
      <trkpt lat="49.32898" lon="0.0118">
        <ele>57.5327</ele>
        <time>2018-08-12T09:46:29Z</time>
      </trkpt>
      <trkpt lat="49.32893" lon="0.01186">
        <ele>56.2833</ele>
        <time>2018-08-12T09:46:34Z</time>
      </trkpt>
      <trkpt lat="49.32893" lon="0.01193">
        <ele>55.814</ele>
        <time>2018-08-12T09:46:38Z</time>
      </trkpt>
      <trkpt lat="49.32893" lon="0.01201">
        <ele>55.7432</ele>
        <time>2018-08-12T09:46:43Z</time>
      </trkpt>
      <trkpt lat="49.32893" lon="0.01204">
        <ele>55.4188</ele>
        <time>2018-08-12T09:46:45Z</time>
      </trkpt>
      <trkpt lat="49.32894" lon="0.01211">
        <ele>55.3346</ele>
        <time>2018-08-12T09:46:49Z</time>
      </trkpt>
      <trkpt lat="49.3289" lon="0.01215">
        <ele>54.6922</ele>
        <time>2018-08-12T09:46:54Z</time>
      </trkpt>
      <trkpt lat="49.32885" lon="0.01217">
        <ele>55.6115</ele>
        <time>2018-08-12T09:47:00Z</time>
      </trkpt>
      <trkpt lat="49.32879" lon="0.01219">
        <ele>55.7884</ele>
        <time>2018-08-12T09:47:06Z</time>
      </trkpt>
      <trkpt lat="49.32875" lon="0.01221">
        <ele>55.7686</ele>
        <time>2018-08-12T09:47:10Z</time>
      </trkpt>
      <trkpt lat="49.32875" lon="0.01221">
        <ele>6</ele>
        <time>2018-08-12T09:47:27Z</time>
      </trkpt>
      <trkpt lat="49.32875" lon="0.01221">
        <ele>6</ele>
        <time>2018-08-12T09:47:28Z</time>
      </trkpt>
    </trkseg>
  </trk>
</gpx>